<?xml version="1.0" encoding="UTF-8" standalone="no" ?>
<gpx xmlns="http://www.topografix.com/GPX/1/1" xmlns:xsi="http://www.w3.org/2001/XMLSchema-instance" xsi:schemaLocation="http://www.topografix.com/GPX/1/1 http://www.topografix.com/GPX/1/1/gpx.xsd" version="1.1" creator="VisuGPX - https://www.visugpx.com">
  <metadata>
    <name>VDS 2024 VTT 40km</name>
  </metadata>
  <trk>
    <name><![CDATA[VDS 2024 40km]]></name>
    <extensions>
      <line xmlns="http://www.topografix.com/GPX/gpx_style/0/2">
        <color>0000FF</color>
        <width>4</width>
      </line>
    </extensions>
    <trkseg>
      <trkpt lat="49.17481" lon="1.35444">
        <ele>14.096318</ele>
        <time>2024-05-03T06:04:37.570Z</time>
      </trkpt>
      <trkpt lat="49.17477" lon="1.35438">
        <ele>14.096318</ele>
        <time>2024-05-03T06:04:38.759Z</time>
      </trkpt>
      <trkpt lat="49.17473" lon="1.3543">
        <ele>14.096318</ele>
        <time>2024-05-03T06:04:40.044Z</time>
      </trkpt>
      <trkpt lat="49.17463" lon="1.35421">
        <ele>14.096318</ele>
        <time>2024-05-03T06:04:42.356Z</time>
      </trkpt>
      <trkpt lat="49.17448" lon="1.35414">
        <ele>14.096318</ele>
        <time>2024-05-03T06:04:45.512Z</time>
      </trkpt>
      <trkpt lat="49.17463" lon="1.35333">
        <ele>14.108663</ele>
        <time>2024-05-03T06:04:56.863Z</time>
      </trkpt>
      <trkpt lat="49.17477" lon="1.35294">
        <ele>14.191024</ele>
        <time>2024-05-03T06:05:02.879Z</time>
      </trkpt>
      <trkpt lat="49.17519" lon="1.35195">
        <ele>14.406889</ele>
        <time>2024-05-03T06:05:18.183Z</time>
      </trkpt>
      <trkpt lat="49.17526" lon="1.3519">
        <ele>14.428054</ele>
        <time>2024-05-03T06:05:19.754Z</time>
      </trkpt>
      <trkpt lat="49.17549" lon="1.35195">
        <ele>14.492763</ele>
        <time>2024-05-03T06:05:24.892Z</time>
      </trkpt>
      <trkpt lat="49.1755" lon="1.35184">
        <ele>14.513988</ele>
        <time>2024-05-03T06:05:26.579Z</time>
      </trkpt>
      <trkpt lat="49.17557" lon="1.35181">
        <ele>14.534728</ele>
        <time>2024-05-03T06:05:28.591Z</time>
      </trkpt>
      <trkpt lat="49.17559" lon="1.35187">
        <ele>14.547786</ele>
        <time>2024-05-03T06:05:29.937Z</time>
      </trkpt>
      <trkpt lat="49.17628" lon="1.3521">
        <ele>14.714581</ele>
        <time>2024-05-03T06:05:48.811Z</time>
      </trkpt>
      <trkpt lat="49.17631" lon="1.35204">
        <ele>14.724807</ele>
        <time>2024-05-03T06:05:50.204Z</time>
      </trkpt>
      <trkpt lat="49.17637" lon="1.35209">
        <ele>14.739243</ele>
        <time>2024-05-03T06:05:51.893Z</time>
      </trkpt>
      <trkpt lat="49.17641" lon="1.35224">
        <ele>14.762469</ele>
        <time>2024-05-03T06:05:54.490Z</time>
      </trkpt>
      <trkpt lat="49.17649" lon="1.35226">
        <ele>14.77919</ele>
        <time>2024-05-03T06:05:55.933Z</time>
      </trkpt>
      <trkpt lat="49.17656" lon="1.35224">
        <ele>14.795644</ele>
        <time>2024-05-03T06:05:57.375Z</time>
      </trkpt>
      <trkpt lat="49.17663" lon="1.35215">
        <ele>14.815074</ele>
        <time>2024-05-03T06:05:59.319Z</time>
      </trkpt>
      <trkpt lat="49.17669" lon="1.35196">
        <ele>14.84563</ele>
        <time>2024-05-03T06:06:01.959Z</time>
      </trkpt>
      <trkpt lat="49.1765" lon="1.35185">
        <ele>14.889757</ele>
        <time>2024-05-03T06:06:06.159Z</time>
      </trkpt>
      <trkpt lat="49.176" lon="1.35161">
        <ele>14.997868</ele>
        <time>2024-05-03T06:06:16.718Z</time>
      </trkpt>
      <trkpt lat="49.17559" lon="1.35146">
        <ele>15.011253</ele>
        <time>2024-05-03T06:06:25.068Z</time>
      </trkpt>
      <trkpt lat="49.17557" lon="1.35145">
        <ele>15.012147</ele>
        <time>2024-05-03T06:06:25.595Z</time>
      </trkpt>
      <trkpt lat="49.17503" lon="1.35127">
        <ele>15.029943</ele>
        <time>2024-05-03T06:06:36.631Z</time>
      </trkpt>
      <trkpt lat="49.17502" lon="1.35127">
        <ele>15.030269</ele>
        <time>2024-05-03T06:06:36.814Z</time>
      </trkpt>
      <trkpt lat="49.17457" lon="1.35115">
        <ele>15.045137</ele>
        <time>2024-05-03T06:06:45.437Z</time>
      </trkpt>
      <trkpt lat="49.17387" lon="1.35104">
        <ele>14.88037</ele>
        <time>2024-05-03T06:06:58.688Z</time>
      </trkpt>
      <trkpt lat="49.17353" lon="1.35098">
        <ele>14.733431</ele>
        <time>2024-05-03T06:07:04.960Z</time>
      </trkpt>
      <trkpt lat="49.17339" lon="1.35099">
        <ele>14.673544</ele>
        <time>2024-05-03T06:07:07.475Z</time>
      </trkpt>
      <trkpt lat="49.17335" lon="1.35086">
        <ele>14.632523</ele>
        <time>2024-05-03T06:07:09.210Z</time>
      </trkpt>
      <trkpt lat="49.17329" lon="1.3508">
        <ele>14.603078</ele>
        <time>2024-05-03T06:07:10.445Z</time>
      </trkpt>
      <trkpt lat="49.1733" lon="1.35064">
        <ele>14.560142</ele>
        <time>2024-05-03T06:07:12.173Z</time>
      </trkpt>
      <trkpt lat="49.17332" lon="1.35025">
        <ele>14.450029</ele>
        <time>2024-05-03T06:07:16.719Z</time>
      </trkpt>
      <trkpt lat="49.17352" lon="1.34984">
        <ele>14.303837</ele>
        <time>2024-05-03T06:07:22.603Z</time>
      </trkpt>
      <trkpt lat="49.17363" lon="1.34968">
        <ele>14.217216</ele>
        <time>2024-05-03T06:07:25.164Z</time>
      </trkpt>
      <trkpt lat="49.17379" lon="1.34958">
        <ele>14.100559</ele>
        <time>2024-05-03T06:07:28.243Z</time>
      </trkpt>
      <trkpt lat="49.17392" lon="1.3495">
        <ele>14.004991</ele>
        <time>2024-05-03T06:07:30.709Z</time>
      </trkpt>
      <trkpt lat="49.1742" lon="1.34944">
        <ele>13.814539</ele>
        <time>2024-05-03T06:07:35.711Z</time>
      </trkpt>
      <trkpt lat="49.17478" lon="1.34943">
        <ele>13.430692</ele>
        <time>2024-05-03T06:07:45.716Z</time>
      </trkpt>
      <trkpt lat="49.1749" lon="1.3494">
        <ele>13.345867</ele>
        <time>2024-05-03T06:07:47.966Z</time>
      </trkpt>
      <trkpt lat="49.1752" lon="1.34918">
        <ele>13.126934</ele>
        <time>2024-05-03T06:07:53.746Z</time>
      </trkpt>
      <trkpt lat="49.17528" lon="1.34924">
        <ele>13.071893</ele>
        <time>2024-05-03T06:07:55.370Z</time>
      </trkpt>
      <trkpt lat="49.1753" lon="1.34923">
        <ele>13.065672</ele>
        <time>2024-05-03T06:07:55.702Z</time>
      </trkpt>
      <trkpt lat="49.17537" lon="1.34912">
        <ele>13.031899</ele>
        <time>2024-05-03T06:07:57.517Z</time>
      </trkpt>
      <trkpt lat="49.17535" lon="1.34898">
        <ele>13.000087</ele>
        <time>2024-05-03T06:07:59.232Z</time>
      </trkpt>
      <trkpt lat="49.17544" lon="1.34877">
        <ele>12.945921</ele>
        <time>2024-05-03T06:08:02.147Z</time>
      </trkpt>
      <trkpt lat="49.17551" lon="1.34854">
        <ele>12.892664</ele>
        <time>2024-05-03T06:08:05.009Z</time>
      </trkpt>
      <trkpt lat="49.17556" lon="1.34828">
        <ele>12.835153</ele>
        <time>2024-05-03T06:08:08.173Z</time>
      </trkpt>
      <trkpt lat="49.17562" lon="1.34827">
        <ele>12.814118</ele>
        <time>2024-05-03T06:08:09.325Z</time>
      </trkpt>
      <trkpt lat="49.17563" lon="1.34817">
        <ele>12.79241</ele>
        <time>2024-05-03T06:08:10.684Z</time>
      </trkpt>
      <trkpt lat="49.17559" lon="1.34798">
        <ele>12.74955</ele>
        <time>2024-05-03T06:08:13.392Z</time>
      </trkpt>
      <trkpt lat="49.17574" lon="1.34688">
        <ele>12.509695</ele>
        <time>2024-05-03T06:08:28.896Z</time>
      </trkpt>
      <trkpt lat="49.17571" lon="1.34656">
        <ele>12.486454</ele>
        <time>2024-05-03T06:08:33.366Z</time>
      </trkpt>
      <trkpt lat="49.17578" lon="1.34629">
        <ele>12.482187</ele>
        <time>2024-05-03T06:08:37.285Z</time>
      </trkpt>
      <trkpt lat="49.17581" lon="1.34621">
        <ele>12.480809</ele>
        <time>2024-05-03T06:08:39.157Z</time>
      </trkpt>
      <trkpt lat="49.17588" lon="1.34604">
        <ele>12.477964</ele>
        <time>2024-05-03T06:08:41.801Z</time>
      </trkpt>
      <trkpt lat="49.17591" lon="1.34564">
        <ele>12.47196</ele>
        <time>2024-05-03T06:08:47.404Z</time>
      </trkpt>
      <trkpt lat="49.17591" lon="1.34544">
        <ele>12.468934</ele>
        <time>2024-05-03T06:08:49.904Z</time>
      </trkpt>
      <trkpt lat="49.1759" lon="1.34536">
        <ele>12.467802</ele>
        <time>2024-05-03T06:08:50.863Z</time>
      </trkpt>
      <trkpt lat="49.17594" lon="1.34524">
        <ele>12.465801</ele>
        <time>2024-05-03T06:08:53.128Z</time>
      </trkpt>
      <trkpt lat="49.17593" lon="1.34512">
        <ele>12.463897</ele>
        <time>2024-05-03T06:08:55.270Z</time>
      </trkpt>
      <trkpt lat="49.17592" lon="1.34506">
        <ele>12.463047</ele>
        <time>2024-05-03T06:08:56.223Z</time>
      </trkpt>
      <trkpt lat="49.17586" lon="1.34499">
        <ele>12.461279</ele>
        <time>2024-05-03T06:08:58.182Z</time>
      </trkpt>
      <trkpt lat="49.17585" lon="1.34493">
        <ele>12.460466</ele>
        <time>2024-05-03T06:08:58.873Z</time>
      </trkpt>
      <trkpt lat="49.17572" lon="1.34386">
        <ele>12.440939</ele>
        <time>2024-05-03T06:09:13.339Z</time>
      </trkpt>
      <trkpt lat="49.17545" lon="1.34166">
        <ele>12.383729</ele>
        <time>2024-05-03T06:09:40.942Z</time>
      </trkpt>
      <trkpt lat="49.17545" lon="1.34158">
        <ele>12.381899</ele>
        <time>2024-05-03T06:09:41.893Z</time>
      </trkpt>
      <trkpt lat="49.17467" lon="1.34156">
        <ele>12.413962</ele>
        <time>2024-05-03T06:09:56.792Z</time>
      </trkpt>
      <trkpt lat="49.17462" lon="1.34157">
        <ele>12.416194</ele>
        <time>2024-05-03T06:09:57.645Z</time>
      </trkpt>
      <trkpt lat="49.17438" lon="1.34157">
        <ele>12.428045</ele>
        <time>2024-05-03T06:10:02.152Z</time>
      </trkpt>
      <trkpt lat="49.17438" lon="1.34151">
        <ele>12.430057</ele>
        <time>2024-05-03T06:10:03.267Z</time>
      </trkpt>
      <trkpt lat="49.17437" lon="1.34135">
        <ele>12.435373</ele>
        <time>2024-05-03T06:10:06.051Z</time>
      </trkpt>
      <trkpt lat="49.17432" lon="1.34135">
        <ele>12.438001</ele>
        <time>2024-05-03T06:10:07.379Z</time>
      </trkpt>
      <trkpt lat="49.1738" lon="1.34135">
        <ele>12.463782</ele>
        <time>2024-05-03T06:10:20.843Z</time>
      </trkpt>
      <trkpt lat="49.1737" lon="1.34135">
        <ele>12.471749</ele>
        <time>2024-05-03T06:10:23.564Z</time>
      </trkpt>
      <trkpt lat="49.17363" lon="1.34137">
        <ele>12.494912</ele>
        <time>2024-05-03T06:10:25.367Z</time>
      </trkpt>
      <trkpt lat="49.17361" lon="1.34134">
        <ele>12.504577</ele>
        <time>2024-05-03T06:10:25.939Z</time>
      </trkpt>
      <trkpt lat="49.17335" lon="1.34096">
        <ele>12.624007</ele>
        <time>2024-05-03T06:10:33.337Z</time>
      </trkpt>
      <trkpt lat="49.17325" lon="1.34071">
        <ele>12.686695</ele>
        <time>2024-05-03T06:10:37.349Z</time>
      </trkpt>
      <trkpt lat="49.17326" lon="1.34011">
        <ele>12.81879</ele>
        <time>2024-05-03T06:10:45.512Z</time>
      </trkpt>
      <trkpt lat="49.17336" lon="1.33986">
        <ele>12.882712</ele>
        <time>2024-05-03T06:10:49.321Z</time>
      </trkpt>
      <trkpt lat="49.17342" lon="1.33974">
        <ele>12.914064</ele>
        <time>2024-05-03T06:10:51.395Z</time>
      </trkpt>
      <trkpt lat="49.1737" lon="1.33917">
        <ele>13.071336</ele>
        <time>2024-05-03T06:11:01.903Z</time>
      </trkpt>
      <trkpt lat="49.17372" lon="1.33896">
        <ele>13.137056</ele>
        <time>2024-05-03T06:11:05.204Z</time>
      </trkpt>
      <trkpt lat="49.17372" lon="1.33855">
        <ele>13.265541</ele>
        <time>2024-05-03T06:11:11.465Z</time>
      </trkpt>
      <trkpt lat="49.17372" lon="1.33844">
        <ele>13.297506</ele>
        <time>2024-05-03T06:11:13.085Z</time>
      </trkpt>
      <trkpt lat="49.1737" lon="1.33819">
        <ele>13.376275</ele>
        <time>2024-05-03T06:11:16.897Z</time>
      </trkpt>
      <trkpt lat="49.17377" lon="1.33813">
        <ele>13.413914</ele>
        <time>2024-05-03T06:11:19.097Z</time>
      </trkpt>
      <trkpt lat="49.17377" lon="1.33808">
        <ele>13.431297</ele>
        <time>2024-05-03T06:11:20.105Z</time>
      </trkpt>
      <trkpt lat="49.17377" lon="1.33743">
        <ele>13.63362</ele>
        <time>2024-05-03T06:11:31.587Z</time>
      </trkpt>
      <trkpt lat="49.1738" lon="1.3367">
        <ele>13.858757</ele>
        <time>2024-05-03T06:11:44.333Z</time>
      </trkpt>
      <trkpt lat="49.17381" lon="1.33659">
        <ele>13.894905</ele>
        <time>2024-05-03T06:11:46.354Z</time>
      </trkpt>
      <trkpt lat="49.17383" lon="1.33614">
        <ele>14.171737</ele>
        <time>2024-05-03T06:11:54.675Z</time>
      </trkpt>
      <trkpt lat="49.17384" lon="1.3361">
        <ele>14.197943</ele>
        <time>2024-05-03T06:11:56.370Z</time>
      </trkpt>
      <trkpt lat="49.1738" lon="1.3361">
        <ele>14.236194</ele>
        <time>2024-05-03T06:11:58.867Z</time>
      </trkpt>
      <trkpt lat="49.17381" lon="1.3359">
        <ele>14.368634</ele>
        <time>2024-05-03T06:12:01.876Z</time>
      </trkpt>
      <trkpt lat="49.17361" lon="1.33585">
        <ele>14.591362</ele>
        <time>2024-05-03T06:12:07.100Z</time>
      </trkpt>
      <trkpt lat="49.17323" lon="1.33572">
        <ele>15.000459</ele>
        <time>2024-05-03T06:12:16.798Z</time>
      </trkpt>
      <trkpt lat="49.17316" lon="1.33569">
        <ele>15.075529</ele>
        <time>2024-05-03T06:12:18.648Z</time>
      </trkpt>
      <trkpt lat="49.17316" lon="1.33561">
        <ele>15.134112</ele>
        <time>2024-05-03T06:12:20.146Z</time>
      </trkpt>
      <trkpt lat="49.17315" lon="1.33485">
        <ele>15.65645</ele>
        <time>2024-05-03T06:12:33.604Z</time>
      </trkpt>
      <trkpt lat="49.17314" lon="1.33371">
        <ele>16.737921</ele>
        <time>2024-05-03T06:12:53.502Z</time>
      </trkpt>
      <trkpt lat="49.17314" lon="1.33322">
        <ele>17.231673</ele>
        <time>2024-05-03T06:13:02.001Z</time>
      </trkpt>
      <trkpt lat="49.17311" lon="1.33308">
        <ele>17.380934</ele>
        <time>2024-05-03T06:13:04.780Z</time>
      </trkpt>
      <trkpt lat="49.17303" lon="1.33291">
        <ele>17.600424</ele>
        <time>2024-05-03T06:13:08.845Z</time>
      </trkpt>
      <trkpt lat="49.17293" lon="1.33271">
        <ele>17.854757</ele>
        <time>2024-05-03T06:13:13.361Z</time>
      </trkpt>
      <trkpt lat="49.17291" lon="1.33262">
        <ele>17.948973</ele>
        <time>2024-05-03T06:13:15.183Z</time>
      </trkpt>
      <trkpt lat="49.17289" lon="1.3324">
        <ele>18.176077</ele>
        <time>2024-05-03T06:13:19.441Z</time>
      </trkpt>
      <trkpt lat="49.17288" lon="1.33213">
        <ele>18.44777</ele>
        <time>2024-05-03T06:13:24.443Z</time>
      </trkpt>
      <trkpt lat="49.17286" lon="1.33152">
        <ele>19.416154</ele>
        <time>2024-05-03T06:13:36.481Z</time>
      </trkpt>
      <trkpt lat="49.17289" lon="1.3315">
        <ele>19.512178</ele>
        <time>2024-05-03T06:13:37.581Z</time>
      </trkpt>
      <trkpt lat="49.1729" lon="1.33144">
        <ele>19.634761</ele>
        <time>2024-05-03T06:13:38.993Z</time>
      </trkpt>
      <trkpt lat="49.17304" lon="1.33141">
        <ele>20.000013</ele>
        <time>2024-05-03T06:13:42.989Z</time>
      </trkpt>
      <trkpt lat="49.17313" lon="1.33132">
        <ele>20.303071</ele>
        <time>2024-05-03T06:13:46.415Z</time>
      </trkpt>
      <trkpt lat="49.17335" lon="1.33092">
        <ele>21.22629</ele>
        <time>2024-05-03T06:13:57.215Z</time>
      </trkpt>
      <trkpt lat="49.1733" lon="1.33086">
        <ele>21.385595</ele>
        <time>2024-05-03T06:13:59.896Z</time>
      </trkpt>
      <trkpt lat="49.17329" lon="1.33078">
        <ele>21.544645</ele>
        <time>2024-05-03T06:14:02.563Z</time>
      </trkpt>
      <trkpt lat="49.17328" lon="1.33003">
        <ele>22.884941</ele>
        <time>2024-05-03T06:14:25.992Z</time>
      </trkpt>
      <trkpt lat="49.17324" lon="1.32997">
        <ele>23.042309</ele>
        <time>2024-05-03T06:14:28.816Z</time>
      </trkpt>
      <trkpt lat="49.17264" lon="1.32977">
        <ele>24.779615</ele>
        <time>2024-05-03T06:15:01.055Z</time>
      </trkpt>
      <trkpt lat="49.17258" lon="1.32968">
        <ele>25.00043</ele>
        <time>2024-05-03T06:15:05.041Z</time>
      </trkpt>
      <trkpt lat="49.17255" lon="1.32944">
        <ele>25.469107</ele>
        <time>2024-05-03T06:15:13.566Z</time>
      </trkpt>
      <trkpt lat="49.17247" lon="1.32931">
        <ele>25.786577</ele>
        <time>2024-05-03T06:15:19.199Z</time>
      </trkpt>
      <trkpt lat="49.17225" lon="1.32923">
        <ele>26.450005</ele>
        <time>2024-05-03T06:15:30.710Z</time>
      </trkpt>
      <trkpt lat="49.17153" lon="1.32919">
        <ele>28.470637</ele>
        <time>2024-05-03T06:16:01.786Z</time>
      </trkpt>
      <trkpt lat="49.17125" lon="1.32919">
        <ele>28.31487</ele>
        <time>2024-05-03T06:16:11.980Z</time>
      </trkpt>
      <trkpt lat="49.17066" lon="1.32909">
        <ele>27.501953</ele>
        <time>2024-05-03T06:16:29.907Z</time>
      </trkpt>
      <trkpt lat="49.17024" lon="1.32912">
        <ele>26.929669</ele>
        <time>2024-05-03T06:16:41.363Z</time>
      </trkpt>
      <trkpt lat="49.17027" lon="1.32935">
        <ele>26.726075</ele>
        <time>2024-05-03T06:16:43.660Z</time>
      </trkpt>
      <trkpt lat="49.17024" lon="1.32978">
        <ele>26.336965</ele>
        <time>2024-05-03T06:16:48.015Z</time>
      </trkpt>
      <trkpt lat="49.17021" lon="1.32995">
        <ele>26.181691</ele>
        <time>2024-05-03T06:16:49.733Z</time>
      </trkpt>
      <trkpt lat="49.17009" lon="1.33034">
        <ele>25.440719</ele>
        <time>2024-05-03T06:16:54.023Z</time>
      </trkpt>
      <trkpt lat="49.17007" lon="1.33041">
        <ele>25.315637</ele>
        <time>2024-05-03T06:16:54.732Z</time>
      </trkpt>
      <trkpt lat="49.16974" lon="1.33036">
        <ele>24.460788</ele>
        <time>2024-05-03T06:16:59.644Z</time>
      </trkpt>
      <trkpt lat="49.16934" lon="1.33046">
        <ele>23.403936</ele>
        <time>2024-05-03T06:17:05.820Z</time>
      </trkpt>
      <trkpt lat="49.16853" lon="1.33056">
        <ele>21.460586</ele>
        <time>2024-05-03T06:17:19.339Z</time>
      </trkpt>
      <trkpt lat="49.16815" lon="1.33072">
        <ele>21.44136</ele>
        <time>2024-05-03T06:17:26.350Z</time>
      </trkpt>
      <trkpt lat="49.16767" lon="1.33089">
        <ele>21.416936</ele>
        <time>2024-05-03T06:17:35.775Z</time>
      </trkpt>
      <trkpt lat="49.16754" lon="1.3309">
        <ele>21.410443</ele>
        <time>2024-05-03T06:17:38.432Z</time>
      </trkpt>
      <trkpt lat="49.16728" lon="1.33086">
        <ele>21.397704</ele>
        <time>2024-05-03T06:17:44.230Z</time>
      </trkpt>
      <trkpt lat="49.16667" lon="1.33075">
        <ele>21.726553</ele>
        <time>2024-05-03T06:18:00.632Z</time>
      </trkpt>
      <trkpt lat="49.16596" lon="1.3306">
        <ele>23.207472</ele>
        <time>2024-05-03T06:18:23.263Z</time>
      </trkpt>
      <trkpt lat="49.16568" lon="1.33055">
        <ele>23.799367</ele>
        <time>2024-05-03T06:18:32.519Z</time>
      </trkpt>
      <trkpt lat="49.16522" lon="1.33043">
        <ele>24.772709</ele>
        <time>2024-05-03T06:18:47.509Z</time>
      </trkpt>
      <trkpt lat="49.16486" lon="1.33021">
        <ele>25.482114</ele>
        <time>2024-05-03T06:19:00.176Z</time>
      </trkpt>
      <trkpt lat="49.16205" lon="1.33066">
        <ele>29.823768</ele>
        <time>2024-05-03T06:20:17.677Z</time>
      </trkpt>
      <trkpt lat="49.16205" lon="1.33066">
        <ele>29.823768</ele>
        <time>2024-05-03T06:20:17.700Z</time>
      </trkpt>
      <trkpt lat="49.16205" lon="1.33066">
        <ele>29.823768</ele>
        <time>2024-05-03T06:20:17.700Z</time>
      </trkpt>
      <trkpt lat="49.16144" lon="1.33041">
        <ele>30.700945</ele>
        <time>2024-05-03T06:20:44.842Z</time>
      </trkpt>
      <trkpt lat="49.16083" lon="1.33016">
        <ele>31.539206</ele>
        <time>2024-05-03T06:21:11.991Z</time>
      </trkpt>
      <trkpt lat="49.16087" lon="1.32926">
        <ele>32.314775</ele>
        <time>2024-05-03T06:21:37.110Z</time>
      </trkpt>
      <trkpt lat="49.16091" lon="1.32837">
        <ele>33.20724</ele>
        <time>2024-05-03T06:22:02.231Z</time>
      </trkpt>
      <trkpt lat="49.16063" lon="1.32839">
        <ele>33.923611</ele>
        <time>2024-05-03T06:22:14.222Z</time>
      </trkpt>
      <trkpt lat="49.16083" lon="1.32705">
        <ele>36.219681</ele>
        <time>2024-05-03T06:22:52.663Z</time>
      </trkpt>
      <trkpt lat="49.16082" lon="1.32706">
        <ele>36.254377</ele>
        <time>2024-05-03T06:22:53.269Z</time>
      </trkpt>
      <trkpt lat="49.16081" lon="1.32703">
        <ele>36.293293</ele>
        <time>2024-05-03T06:22:53.921Z</time>
      </trkpt>
      <trkpt lat="49.16063" lon="1.32676">
        <ele>36.941596</ele>
        <time>2024-05-03T06:23:05.106Z</time>
      </trkpt>
      <trkpt lat="49.16037" lon="1.32638">
        <ele>37.945625</ele>
        <time>2024-05-03T06:23:19.438Z</time>
      </trkpt>
      <trkpt lat="49.16022" lon="1.32598">
        <ele>38.91838</ele>
        <time>2024-05-03T06:23:30.944Z</time>
      </trkpt>
      <trkpt lat="49.16019" lon="1.32577">
        <ele>39.388468</ele>
        <time>2024-05-03T06:23:35.832Z</time>
      </trkpt>
      <trkpt lat="49.16012" lon="1.32546">
        <ele>40.078169</ele>
        <time>2024-05-03T06:23:42.850Z</time>
      </trkpt>
      <trkpt lat="49.15997" lon="1.32515">
        <ele>40.897833</ele>
        <time>2024-05-03T06:23:50.322Z</time>
      </trkpt>
      <trkpt lat="49.15987" lon="1.32496">
        <ele>41.433305</ele>
        <time>2024-05-03T06:23:56.485Z</time>
      </trkpt>
      <trkpt lat="49.15948" lon="1.32408">
        <ele>43.606745</ele>
        <time>2024-05-03T06:24:22.104Z</time>
      </trkpt>
      <trkpt lat="49.15975" lon="1.32383">
        <ele>44.311438</ele>
        <time>2024-05-03T06:24:33.335Z</time>
      </trkpt>
      <trkpt lat="49.15995" lon="1.32374">
        <ele>44.787398</ele>
        <time>2024-05-03T06:24:40.529Z</time>
      </trkpt>
      <trkpt lat="49.15971" lon="1.32289">
        <ele>46.140685</ele>
        <time>2024-05-03T06:24:55.943Z</time>
      </trkpt>
      <trkpt lat="49.15967" lon="1.32284">
        <ele>46.248849</ele>
        <time>2024-05-03T06:24:56.963Z</time>
      </trkpt>
      <trkpt lat="49.15942" lon="1.32274">
        <ele>46.833209</ele>
        <time>2024-05-03T06:25:04.982Z</time>
      </trkpt>
      <trkpt lat="49.15921" lon="1.32219">
        <ele>47.944969</ele>
        <time>2024-05-03T06:25:17.315Z</time>
      </trkpt>
      <trkpt lat="49.15921" lon="1.32203">
        <ele>48.313373</ele>
        <time>2024-05-03T06:25:22.338Z</time>
      </trkpt>
      <trkpt lat="49.15927" lon="1.3217">
        <ele>49.101452</ele>
        <time>2024-05-03T06:25:29.724Z</time>
      </trkpt>
      <trkpt lat="49.15931" lon="1.32149">
        <ele>49.605751</ele>
        <time>2024-05-03T06:25:36.466Z</time>
      </trkpt>
      <trkpt lat="49.15964" lon="1.32162">
        <ele>50.806104</ele>
        <time>2024-05-03T06:25:47.990Z</time>
      </trkpt>
      <trkpt lat="49.15964" lon="1.32162">
        <ele>50.806104</ele>
        <time>2024-05-03T06:25:48.119Z</time>
      </trkpt>
      <trkpt lat="49.15964" lon="1.32162">
        <ele>50.806104</ele>
        <time>2024-05-03T06:25:48.119Z</time>
      </trkpt>
      <trkpt lat="49.15963" lon="1.32168">
        <ele>50.944206</ele>
        <time>2024-05-03T06:25:49.798Z</time>
      </trkpt>
      <trkpt lat="49.16034" lon="1.32086">
        <ele>54.20564</ele>
        <time>2024-05-03T06:26:27.923Z</time>
      </trkpt>
      <trkpt lat="49.16039" lon="1.32016">
        <ele>56.470453</ele>
        <time>2024-05-03T06:26:47.716Z</time>
      </trkpt>
      <trkpt lat="49.16075" lon="1.32085">
        <ele>59.324641</ele>
        <time>2024-05-03T06:27:12.670Z</time>
      </trkpt>
      <trkpt lat="49.16112" lon="1.32155">
        <ele>62.178816</ele>
        <time>2024-05-03T06:27:37.632Z</time>
      </trkpt>
      <trkpt lat="49.16109" lon="1.32156">
        <ele>62.329872</ele>
        <time>2024-05-03T06:27:38.953Z</time>
      </trkpt>
      <trkpt lat="49.16108" lon="1.32148">
        <ele>62.583013</ele>
        <time>2024-05-03T06:27:41.807Z</time>
      </trkpt>
      <trkpt lat="49.16105" lon="1.32109">
        <ele>64.30978</ele>
        <time>2024-05-03T06:27:56.128Z</time>
      </trkpt>
      <trkpt lat="49.16107" lon="1.32018">
        <ele>68.379729</ele>
        <time>2024-05-03T06:28:27.653Z</time>
      </trkpt>
      <trkpt lat="49.16105" lon="1.31942">
        <ele>71.744326</ele>
        <time>2024-05-03T06:28:55.044Z</time>
      </trkpt>
      <trkpt lat="49.16096" lon="1.31876">
        <ele>74.715263</ele>
        <time>2024-05-03T06:29:19.321Z</time>
      </trkpt>
      <trkpt lat="49.16085" lon="1.31838">
        <ele>76.926366</ele>
        <time>2024-05-03T06:29:35.404Z</time>
      </trkpt>
      <trkpt lat="49.16055" lon="1.31762">
        <ele>81.642605</ele>
        <time>2024-05-03T06:30:10.989Z</time>
      </trkpt>
      <trkpt lat="49.16024" lon="1.31713">
        <ele>85.292653</ele>
        <time>2024-05-03T06:30:39.136Z</time>
      </trkpt>
      <trkpt lat="49.16011" lon="1.31688">
        <ele>87.025055</ele>
        <time>2024-05-03T06:30:52.425Z</time>
      </trkpt>
      <trkpt lat="49.16008" lon="1.31674">
        <ele>87.824952</ele>
        <time>2024-05-03T06:30:58.419Z</time>
      </trkpt>
      <trkpt lat="49.16008" lon="1.31658">
        <ele>88.668807</ele>
        <time>2024-05-03T06:31:04.794Z</time>
      </trkpt>
      <trkpt lat="49.16018" lon="1.31585">
        <ele>92.589722</ele>
        <time>2024-05-03T06:31:35.220Z</time>
      </trkpt>
      <trkpt lat="49.16016" lon="1.31542">
        <ele>94.823479</ele>
        <time>2024-05-03T06:31:52.735Z</time>
      </trkpt>
      <trkpt lat="49.16018" lon="1.31517">
        <ele>96.151508</ele>
        <time>2024-05-03T06:32:03.135Z</time>
      </trkpt>
      <trkpt lat="49.16021" lon="1.31506">
        <ele>96.826751</ele>
        <time>2024-05-03T06:32:08.371Z</time>
      </trkpt>
      <trkpt lat="49.16042" lon="1.31483">
        <ele>98.887643</ele>
        <time>2024-05-03T06:32:24.444Z</time>
      </trkpt>
      <trkpt lat="49.16078" lon="1.31458">
        <ele>102.045474</ele>
        <time>2024-05-03T06:32:48.191Z</time>
      </trkpt>
      <trkpt lat="49.1608" lon="1.31441">
        <ele>102.93111</ele>
        <time>2024-05-03T06:32:54.505Z</time>
      </trkpt>
      <trkpt lat="49.16077" lon="1.31416">
        <ele>104.130363</ele>
        <time>2024-05-03T06:33:03.828Z</time>
      </trkpt>
      <trkpt lat="49.16074" lon="1.31347">
        <ele>106.425196</ele>
        <time>2024-05-03T06:33:27.093Z</time>
      </trkpt>
      <trkpt lat="49.16071" lon="1.31296">
        <ele>108.117067</ele>
        <time>2024-05-03T06:33:42.844Z</time>
      </trkpt>
      <trkpt lat="49.16064" lon="1.31257">
        <ele>109.45862</ele>
        <time>2024-05-03T06:33:54.664Z</time>
      </trkpt>
      <trkpt lat="49.16005" lon="1.31066">
        <ele>114.891179</ele>
        <time>2024-05-03T06:34:47.594Z</time>
      </trkpt>
      <trkpt lat="49.15991" lon="1.31037">
        <ele>115.537585</ele>
        <time>2024-05-03T06:34:55.478Z</time>
      </trkpt>
      <trkpt lat="49.15946" lon="1.30965">
        <ele>117.336679</ele>
        <time>2024-05-03T06:35:16.589Z</time>
      </trkpt>
      <trkpt lat="49.15894" lon="1.30855">
        <ele>118.243043</ele>
        <time>2024-05-03T06:35:42.186Z</time>
      </trkpt>
      <trkpt lat="49.15861" lon="1.30767">
        <ele>118.51678</ele>
        <time>2024-05-03T06:35:56.910Z</time>
      </trkpt>
      <trkpt lat="49.15846" lon="1.30734">
        <ele>118.625639</ele>
        <time>2024-05-03T06:36:01.816Z</time>
      </trkpt>
      <trkpt lat="49.15833" lon="1.30709">
        <ele>118.710416</ele>
        <time>2024-05-03T06:36:05.476Z</time>
      </trkpt>
      <trkpt lat="49.15821" lon="1.3071">
        <ele>118.425757</ele>
        <time>2024-05-03T06:36:07.472Z</time>
      </trkpt>
      <trkpt lat="49.15805" lon="1.30704">
        <ele>118.012765</ele>
        <time>2024-05-03T06:36:10.179Z</time>
      </trkpt>
      <trkpt lat="49.15762" lon="1.30676">
        <ele>116.810493</ele>
        <time>2024-05-03T06:36:17.761Z</time>
      </trkpt>
      <trkpt lat="49.1571" lon="1.30674">
        <ele>115.496005</ele>
        <time>2024-05-03T06:36:25.719Z</time>
      </trkpt>
      <trkpt lat="49.15665" lon="1.30671">
        <ele>114.356171</ele>
        <time>2024-05-03T06:36:37.273Z</time>
      </trkpt>
      <trkpt lat="49.15595" lon="1.30634">
        <ele>113.614755</ele>
        <time>2024-05-03T06:36:56.945Z</time>
      </trkpt>
      <trkpt lat="49.15541" lon="1.30633">
        <ele>113.176032</ele>
        <time>2024-05-03T06:37:12.029Z</time>
      </trkpt>
      <trkpt lat="49.15442" lon="1.3056">
        <ele>115.041375</ele>
        <time>2024-05-03T06:37:56.260Z</time>
      </trkpt>
      <trkpt lat="49.1543" lon="1.30558">
        <ele>115.602433</ele>
        <time>2024-05-03T06:38:02.601Z</time>
      </trkpt>
      <trkpt lat="49.15416" lon="1.3054">
        <ele>116.476093</ele>
        <time>2024-05-03T06:38:12.950Z</time>
      </trkpt>
      <trkpt lat="49.15363" lon="1.30538">
        <ele>118.952407</ele>
        <time>2024-05-03T06:38:45.259Z</time>
      </trkpt>
      <trkpt lat="49.15275" lon="1.3053">
        <ele>123.581073</ele>
        <time>2024-05-03T06:39:44.441Z</time>
      </trkpt>
      <trkpt lat="49.15244" lon="1.30516">
        <ele>125.457098</ele>
        <time>2024-05-03T06:40:05.809Z</time>
      </trkpt>
      <trkpt lat="49.15169" lon="1.30501">
        <ele>129.962982</ele>
        <time>2024-05-03T06:40:52.938Z</time>
      </trkpt>
      <trkpt lat="49.15141" lon="1.30501">
        <ele>131.572378</ele>
        <time>2024-05-03T06:41:07.877Z</time>
      </trkpt>
      <trkpt lat="49.15078" lon="1.30542">
        <ele>133.289642</ele>
        <time>2024-05-03T06:41:40.963Z</time>
      </trkpt>
      <trkpt lat="49.15045" lon="1.30462">
        <ele>134.78005</ele>
        <time>2024-05-03T06:42:06.550Z</time>
      </trkpt>
      <trkpt lat="49.15015" lon="1.30413">
        <ele>135.812761</ele>
        <time>2024-05-03T06:42:22.420Z</time>
      </trkpt>
      <trkpt lat="49.15011" lon="1.30407">
        <ele>135.95079</ele>
        <time>2024-05-03T06:42:23.885Z</time>
      </trkpt>
      <trkpt lat="49.14975" lon="1.30362">
        <ele>136.495447</ele>
        <time>2024-05-03T06:42:35.137Z</time>
      </trkpt>
      <trkpt lat="49.14782" lon="1.30172">
        <ele>138.967944</ele>
        <time>2024-05-03T06:43:32.592Z</time>
      </trkpt>
      <trkpt lat="49.14737" lon="1.30133">
        <ele>139.480031</ele>
        <time>2024-05-03T06:43:44.891Z</time>
      </trkpt>
      <trkpt lat="49.14742" lon="1.30112">
        <ele>139.620876</ele>
        <time>2024-05-03T06:43:48.316Z</time>
      </trkpt>
      <trkpt lat="49.14729" lon="1.30111">
        <ele>139.752155</ele>
        <time>2024-05-03T06:43:51.550Z</time>
      </trkpt>
      <trkpt lat="49.1472" lon="1.30114">
        <ele>139.831571</ele>
        <time>2024-05-03T06:43:53.828Z</time>
      </trkpt>
      <trkpt lat="49.14591" lon="1.29998">
        <ele>140.663479</ele>
        <time>2024-05-03T06:44:26.936Z</time>
      </trkpt>
      <trkpt lat="49.14537" lon="1.29971">
        <ele>140.734761</ele>
        <time>2024-05-03T06:44:38.592Z</time>
      </trkpt>
      <trkpt lat="49.14509" lon="1.29963">
        <ele>140.652024</ele>
        <time>2024-05-03T06:44:44.128Z</time>
      </trkpt>
      <trkpt lat="49.14492" lon="1.29958">
        <ele>140.603041</ele>
        <time>2024-05-03T06:44:47.275Z</time>
      </trkpt>
      <trkpt lat="49.14427" lon="1.29936">
        <ele>140.409132</ele>
        <time>2024-05-03T06:44:59.550Z</time>
      </trkpt>
      <trkpt lat="49.14341" lon="1.299">
        <ele>139.862321</ele>
        <time>2024-05-03T06:45:14.651Z</time>
      </trkpt>
      <trkpt lat="49.14301" lon="1.29879">
        <ele>139.495772</ele>
        <time>2024-05-03T06:45:21.703Z</time>
      </trkpt>
      <trkpt lat="49.14208" lon="1.29836">
        <ele>138.761986</ele>
        <time>2024-05-03T06:45:38.363Z</time>
      </trkpt>
      <trkpt lat="49.14182" lon="1.29818">
        <ele>138.812315</ele>
        <time>2024-05-03T06:45:43.458Z</time>
      </trkpt>
      <trkpt lat="49.14165" lon="1.29795">
        <ele>138.851131</ele>
        <time>2024-05-03T06:45:47.518Z</time>
      </trkpt>
      <trkpt lat="49.14161" lon="1.29785">
        <ele>138.865233</ele>
        <time>2024-05-03T06:45:48.996Z</time>
      </trkpt>
      <trkpt lat="49.1408" lon="1.29499">
        <ele>139.958812</ele>
        <time>2024-05-03T06:46:34.959Z</time>
      </trkpt>
      <trkpt lat="49.14014" lon="1.29253">
        <ele>141.846516</ele>
        <time>2024-05-03T06:47:19.342Z</time>
      </trkpt>
      <trkpt lat="49.13976" lon="1.29137">
        <ele>142.860526</ele>
        <time>2024-05-03T06:47:40.801Z</time>
      </trkpt>
      <trkpt lat="49.1396" lon="1.2909">
        <ele>143.20118</ele>
        <time>2024-05-03T06:47:49.263Z</time>
      </trkpt>
      <trkpt lat="49.13923" lon="1.29003">
        <ele>143.829864</ele>
        <time>2024-05-03T06:48:05.494Z</time>
      </trkpt>
      <trkpt lat="49.139" lon="1.28951">
        <ele>144.210649</ele>
        <time>2024-05-03T06:48:15.017Z</time>
      </trkpt>
      <trkpt lat="49.13831" lon="1.28799">
        <ele>145.198393</ele>
        <time>2024-05-03T06:48:42.938Z</time>
      </trkpt>
      <trkpt lat="49.13808" lon="1.2871">
        <ele>145.680548</ele>
        <time>2024-05-03T06:48:57.298Z</time>
      </trkpt>
      <trkpt lat="49.13802" lon="1.28681">
        <ele>145.82844</ele>
        <time>2024-05-03T06:49:01.720Z</time>
      </trkpt>
      <trkpt lat="49.13798" lon="1.28642">
        <ele>146.018722</ele>
        <time>2024-05-03T06:49:07.671Z</time>
      </trkpt>
      <trkpt lat="49.13801" lon="1.28532">
        <ele>146.465954</ele>
        <time>2024-05-03T06:49:24.322Z</time>
      </trkpt>
      <trkpt lat="49.13796" lon="1.28452">
        <ele>146.791853</ele>
        <time>2024-05-03T06:49:35.803Z</time>
      </trkpt>
      <trkpt lat="49.13786" lon="1.28383">
        <ele>147.083666</ele>
        <time>2024-05-03T06:49:45.652Z</time>
      </trkpt>
      <trkpt lat="49.13741" lon="1.28172">
        <ele>147.61966</ele>
        <time>2024-05-03T06:50:16.520Z</time>
      </trkpt>
      <trkpt lat="49.13772" lon="1.28139">
        <ele>147.75735</ele>
        <time>2024-05-03T06:50:24.819Z</time>
      </trkpt>
      <trkpt lat="49.13783" lon="1.28123">
        <ele>147.769642</ele>
        <time>2024-05-03T06:50:28.141Z</time>
      </trkpt>
      <trkpt lat="49.13814" lon="1.28065">
        <ele>147.808246</ele>
        <time>2024-05-03T06:50:38.410Z</time>
      </trkpt>
      <trkpt lat="49.13831" lon="1.28045">
        <ele>147.825563</ele>
        <time>2024-05-03T06:50:42.927Z</time>
      </trkpt>
      <trkpt lat="49.13879" lon="1.28011">
        <ele>147.86724</ele>
        <time>2024-05-03T06:50:53.597Z</time>
      </trkpt>
      <trkpt lat="49.1391" lon="1.27993">
        <ele>147.893799</ele>
        <time>2024-05-03T06:51:00.352Z</time>
      </trkpt>
      <trkpt lat="49.1401" lon="1.27953">
        <ele>147.869704</ele>
        <time>2024-05-03T06:51:20.993Z</time>
      </trkpt>
      <trkpt lat="49.14052" lon="1.27932">
        <ele>147.855642</ele>
        <time>2024-05-03T06:51:29.822Z</time>
      </trkpt>
      <trkpt lat="49.14074" lon="1.27917">
        <ele>147.847955</ele>
        <time>2024-05-03T06:51:34.724Z</time>
      </trkpt>
      <trkpt lat="49.14099" lon="1.27893">
        <ele>147.879393</ele>
        <time>2024-05-03T06:51:40.791Z</time>
      </trkpt>
      <trkpt lat="49.14113" lon="1.27878">
        <ele>147.925662</ele>
        <time>2024-05-03T06:51:44.303Z</time>
      </trkpt>
      <trkpt lat="49.14167" lon="1.27807">
        <ele>148.119143</ele>
        <time>2024-05-03T06:51:59.632Z</time>
      </trkpt>
      <trkpt lat="49.14242" lon="1.2767">
        <ele>148.512378</ele>
        <time>2024-05-03T06:52:25.380Z</time>
      </trkpt>
      <trkpt lat="49.14279" lon="1.2761">
        <ele>148.769202</ele>
        <time>2024-05-03T06:52:37.777Z</time>
      </trkpt>
      <trkpt lat="49.1434" lon="1.27522">
        <ele>149.162331</ele>
        <time>2024-05-03T06:52:56.868Z</time>
      </trkpt>
      <trkpt lat="49.14498" lon="1.27308">
        <ele>150.039025</ele>
        <time>2024-05-03T06:53:44.258Z</time>
      </trkpt>
      <trkpt lat="49.14682" lon="1.27047">
        <ele>150.718021</ele>
        <time>2024-05-03T06:54:37.830Z</time>
      </trkpt>
      <trkpt lat="49.14721" lon="1.26998">
        <ele>150.847146</ele>
        <time>2024-05-03T06:54:48.665Z</time>
      </trkpt>
      <trkpt lat="49.14721" lon="1.26998">
        <ele>150.847146</ele>
        <time>2024-05-03T06:54:48.674Z</time>
      </trkpt>
      <trkpt lat="49.14715" lon="1.27">
        <ele>150.861956</ele>
        <time>2024-05-03T06:54:51.136Z</time>
      </trkpt>
      <trkpt lat="49.14656" lon="1.26928">
        <ele>151.139916</ele>
        <time>2024-05-03T06:55:23.421Z</time>
      </trkpt>
      <trkpt lat="49.14597" lon="1.26856">
        <ele>151.458472</ele>
        <time>2024-05-03T06:55:55.690Z</time>
      </trkpt>
      <trkpt lat="49.14538" lon="1.26785">
        <ele>151.80954</ele>
        <time>2024-05-03T06:56:27.975Z</time>
      </trkpt>
      <trkpt lat="49.14477" lon="1.26705">
        <ele>152.267613</ele>
        <time>2024-05-03T06:57:02.334Z</time>
      </trkpt>
      <trkpt lat="49.14415" lon="1.26626">
        <ele>152.725457</ele>
        <time>2024-05-03T06:57:36.660Z</time>
      </trkpt>
      <trkpt lat="49.14354" lon="1.26547">
        <ele>153.189884</ele>
        <time>2024-05-03T06:58:11.019Z</time>
      </trkpt>
      <trkpt lat="49.14293" lon="1.26468">
        <ele>153.653871</ele>
        <time>2024-05-03T06:58:45.345Z</time>
      </trkpt>
      <trkpt lat="49.14295" lon="1.26468">
        <ele>153.669498</ele>
        <time>2024-05-03T06:58:46.524Z</time>
      </trkpt>
      <trkpt lat="49.14446" lon="1.26111">
        <ele>153.972917</ele>
        <time>2024-05-03T07:00:16.749Z</time>
      </trkpt>
      <trkpt lat="49.14551" lon="1.25863">
        <ele>153.251658</ele>
        <time>2024-05-03T07:01:16.033Z</time>
      </trkpt>
      <trkpt lat="49.14593" lon="1.25774">
        <ele>152.808161</ele>
        <time>2024-05-03T07:01:37.177Z</time>
      </trkpt>
      <trkpt lat="49.14597" lon="1.25759">
        <ele>152.742204</ele>
        <time>2024-05-03T07:01:40.262Z</time>
      </trkpt>
      <trkpt lat="49.14601" lon="1.25756">
        <ele>152.707883</ele>
        <time>2024-05-03T07:01:41.111Z</time>
      </trkpt>
      <trkpt lat="49.14613" lon="1.25747">
        <ele>152.609854</ele>
        <time>2024-05-03T07:01:43.494Z</time>
      </trkpt>
      <trkpt lat="49.14674" lon="1.2568">
        <ele>152.057167</ele>
        <time>2024-05-03T07:01:56.904Z</time>
      </trkpt>
      <trkpt lat="49.14709" lon="1.25632">
        <ele>151.715636</ele>
        <time>2024-05-03T07:02:05.350Z</time>
      </trkpt>
      <trkpt lat="49.14772" lon="1.25494">
        <ele>151.521799</ele>
        <time>2024-05-03T07:02:27.404Z</time>
      </trkpt>
      <trkpt lat="49.14808" lon="1.25422">
        <ele>151.608355</ele>
        <time>2024-05-03T07:02:39.796Z</time>
      </trkpt>
      <trkpt lat="49.14831" lon="1.25387">
        <ele>151.65569</ele>
        <time>2024-05-03T07:02:47.010Z</time>
      </trkpt>
      <trkpt lat="49.14839" lon="1.25366">
        <ele>151.679609</ele>
        <time>2024-05-03T07:02:50.917Z</time>
      </trkpt>
      <trkpt lat="49.14843" lon="1.25349">
        <ele>151.679539</ele>
        <time>2024-05-03T07:02:53.525Z</time>
      </trkpt>
      <trkpt lat="49.14852" lon="1.25298">
        <ele>151.667621</ele>
        <time>2024-05-03T07:03:01.822Z</time>
      </trkpt>
      <trkpt lat="49.1487" lon="1.2525">
        <ele>151.655331</ele>
        <time>2024-05-03T07:03:10.220Z</time>
      </trkpt>
      <trkpt lat="49.14879" lon="1.2523">
        <ele>151.649811</ele>
        <time>2024-05-03T07:03:13.803Z</time>
      </trkpt>
      <trkpt lat="49.14926" lon="1.25155">
        <ele>151.626521</ele>
        <time>2024-05-03T07:03:27.055Z</time>
      </trkpt>
      <trkpt lat="49.1493" lon="1.25149">
        <ele>151.624656</ele>
        <time>2024-05-03T07:03:28.022Z</time>
      </trkpt>
      <trkpt lat="49.14933" lon="1.25141">
        <ele>151.62246</ele>
        <time>2024-05-03T07:03:29.164Z</time>
      </trkpt>
      <trkpt lat="49.14934" lon="1.25119">
        <ele>151.359446</ele>
        <time>2024-05-03T07:03:31.666Z</time>
      </trkpt>
      <trkpt lat="49.14927" lon="1.2508">
        <ele>150.684651</ele>
        <time>2024-05-03T07:03:36.201Z</time>
      </trkpt>
      <trkpt lat="49.14929" lon="1.25054">
        <ele>150.240316</ele>
        <time>2024-05-03T07:03:39.153Z</time>
      </trkpt>
      <trkpt lat="49.14669" lon="1.24941">
        <ele>142.292951</ele>
        <time>2024-05-03T07:04:48.713Z</time>
      </trkpt>
      <trkpt lat="49.14605" lon="1.24921">
        <ele>140.407915</ele>
        <time>2024-05-03T07:05:05.487Z</time>
      </trkpt>
      <trkpt lat="49.14541" lon="1.24915">
        <ele>138.858234</ele>
        <time>2024-05-03T07:05:22.228Z</time>
      </trkpt>
      <trkpt lat="49.1453" lon="1.24901">
        <ele>138.50275</ele>
        <time>2024-05-03T07:05:26.143Z</time>
      </trkpt>
      <trkpt lat="49.14493" lon="1.24826">
        <ele>137.019848</ele>
        <time>2024-05-03T07:05:42.862Z</time>
      </trkpt>
      <trkpt lat="49.14479" lon="1.24797">
        <ele>136.676644</ele>
        <time>2024-05-03T07:05:49.587Z</time>
      </trkpt>
      <trkpt lat="49.14379" lon="1.24542">
        <ele>135.67514</ele>
        <time>2024-05-03T07:06:48.689Z</time>
      </trkpt>
      <trkpt lat="49.14352" lon="1.2448">
        <ele>135.866089</ele>
        <time>2024-05-03T07:07:05.684Z</time>
      </trkpt>
      <trkpt lat="49.14285" lon="1.24379">
        <ele>136.235228</ele>
        <time>2024-05-03T07:07:38.692Z</time>
      </trkpt>
      <trkpt lat="49.14262" lon="1.2433">
        <ele>136.225008</ele>
        <time>2024-05-03T07:07:52.422Z</time>
      </trkpt>
      <trkpt lat="49.14244" lon="1.24257">
        <ele>136.149852</ele>
        <time>2024-05-03T07:08:09.187Z</time>
      </trkpt>
      <trkpt lat="49.14222" lon="1.24106">
        <ele>135.980248</ele>
        <time>2024-05-03T07:08:39.967Z</time>
      </trkpt>
      <trkpt lat="49.14211" lon="1.23955">
        <ele>135.03868</ele>
        <time>2024-05-03T07:09:08.941Z</time>
      </trkpt>
      <trkpt lat="49.14203" lon="1.23919">
        <ele>134.807077</ele>
        <time>2024-05-03T07:09:16.005Z</time>
      </trkpt>
      <trkpt lat="49.14137" lon="1.23683">
        <ele>133.49089</ele>
        <time>2024-05-03T07:10:05.342Z</time>
      </trkpt>
      <trkpt lat="49.14128" lon="1.23634">
        <ele>133.256565</ele>
        <time>2024-05-03T07:10:15.471Z</time>
      </trkpt>
      <trkpt lat="49.14129" lon="1.23619">
        <ele>133.184766</ele>
        <time>2024-05-03T07:10:18.584Z</time>
      </trkpt>
      <trkpt lat="49.1405" lon="1.23489">
        <ele>132.778606</ele>
        <time>2024-05-03T07:10:40.405Z</time>
      </trkpt>
      <trkpt lat="49.14007" lon="1.23419">
        <ele>132.608092</ele>
        <time>2024-05-03T07:10:52.097Z</time>
      </trkpt>
      <trkpt lat="49.14018" lon="1.2339">
        <ele>132.549744</ele>
        <time>2024-05-03T07:10:56.175Z</time>
      </trkpt>
      <trkpt lat="49.14018" lon="1.23384">
        <ele>132.528246</ele>
        <time>2024-05-03T07:10:56.943Z</time>
      </trkpt>
      <trkpt lat="49.14018" lon="1.23369">
        <ele>132.469994</ele>
        <time>2024-05-03T07:10:58.673Z</time>
      </trkpt>
      <trkpt lat="49.14005" lon="1.2334">
        <ele>132.325473</ele>
        <time>2024-05-03T07:11:02.912Z</time>
      </trkpt>
      <trkpt lat="49.13985" lon="1.23307">
        <ele>132.139808</ele>
        <time>2024-05-03T07:11:08.371Z</time>
      </trkpt>
      <trkpt lat="49.13956" lon="1.23266">
        <ele>131.887383</ele>
        <time>2024-05-03T07:11:15.931Z</time>
      </trkpt>
      <trkpt lat="49.13955" lon="1.23257">
        <ele>131.84977</ele>
        <time>2024-05-03T07:11:17.049Z</time>
      </trkpt>
      <trkpt lat="49.13955" lon="1.23251">
        <ele>131.825602</ele>
        <time>2024-05-03T07:11:17.765Z</time>
      </trkpt>
      <trkpt lat="49.13953" lon="1.23237">
        <ele>131.768727</ele>
        <time>2024-05-03T07:11:19.470Z</time>
      </trkpt>
      <trkpt lat="49.13956" lon="1.2318">
        <ele>131.531028</ele>
        <time>2024-05-03T07:11:26.447Z</time>
      </trkpt>
      <trkpt lat="49.1395" lon="1.23131">
        <ele>131.41639</ele>
        <time>2024-05-03T07:11:32.301Z</time>
      </trkpt>
      <trkpt lat="49.13949" lon="1.23098">
        <ele>131.425516</ele>
        <time>2024-05-03T07:11:36.117Z</time>
      </trkpt>
      <trkpt lat="49.13953" lon="1.23017">
        <ele>131.448462</ele>
        <time>2024-05-03T07:11:45.856Z</time>
      </trkpt>
      <trkpt lat="49.1395" lon="1.22994">
        <ele>131.455266</ele>
        <time>2024-05-03T07:11:49.023Z</time>
      </trkpt>
      <trkpt lat="49.1392" lon="1.22889">
        <ele>131.487508</ele>
        <time>2024-05-03T07:12:15.491Z</time>
      </trkpt>
      <trkpt lat="49.13914" lon="1.22863">
        <ele>131.839462</ele>
        <time>2024-05-03T07:12:22.595Z</time>
      </trkpt>
      <trkpt lat="49.13892" lon="1.22814">
        <ele>132.669039</ele>
        <time>2024-05-03T07:12:38.250Z</time>
      </trkpt>
      <trkpt lat="49.13993" lon="1.22574">
        <ele>136.48319</ele>
        <time>2024-05-03T07:14:01.315Z</time>
      </trkpt>
      <trkpt lat="49.1401" lon="1.22484">
        <ele>137.62337</ele>
        <time>2024-05-03T07:14:27.101Z</time>
      </trkpt>
      <trkpt lat="49.14018" lon="1.22384">
        <ele>138.708272</ele>
        <time>2024-05-03T07:14:51.730Z</time>
      </trkpt>
      <trkpt lat="49.14019" lon="1.22296">
        <ele>138.989522</ele>
        <time>2024-05-03T07:15:11.474Z</time>
      </trkpt>
      <trkpt lat="49.14056" lon="1.2217">
        <ele>139.429089</ele>
        <time>2024-05-03T07:15:41.743Z</time>
      </trkpt>
      <trkpt lat="49.14081" lon="1.21969">
        <ele>139.782992</ele>
        <time>2024-05-03T07:16:25.644Z</time>
      </trkpt>
      <trkpt lat="49.1408" lon="1.21886">
        <ele>139.904392</ele>
        <time>2024-05-03T07:16:43.670Z</time>
      </trkpt>
      <trkpt lat="49.14042" lon="1.21806">
        <ele>139.96723</ele>
        <time>2024-05-03T07:17:05.008Z</time>
      </trkpt>
      <trkpt lat="49.1404" lon="1.21768">
        <ele>139.983269</ele>
        <time>2024-05-03T07:17:12.900Z</time>
      </trkpt>
      <trkpt lat="49.14056" lon="1.21721">
        <ele>140.005254</ele>
        <time>2024-05-03T07:17:23.543Z</time>
      </trkpt>
      <trkpt lat="49.14083" lon="1.21666">
        <ele>140.034213</ele>
        <time>2024-05-03T07:17:37.813Z</time>
      </trkpt>
      <trkpt lat="49.14092" lon="1.21625">
        <ele>140.052469</ele>
        <time>2024-05-03T07:17:46.956Z</time>
      </trkpt>
      <trkpt lat="49.14069" lon="1.21539">
        <ele>140.09889</ele>
        <time>2024-05-03T07:18:00.328Z</time>
      </trkpt>
      <trkpt lat="49.14064" lon="1.21506">
        <ele>140.11554</ele>
        <time>2024-05-03T07:18:05.213Z</time>
      </trkpt>
      <trkpt lat="49.14133" lon="1.21451">
        <ele>140.174984</ele>
        <time>2024-05-03T07:18:21.191Z</time>
      </trkpt>
      <trkpt lat="49.14149" lon="1.21433">
        <ele>140.15338</ele>
        <time>2024-05-03T07:18:24.997Z</time>
      </trkpt>
      <trkpt lat="49.14173" lon="1.21393">
        <ele>139.882885</ele>
        <time>2024-05-03T07:18:31.723Z</time>
      </trkpt>
      <trkpt lat="49.14208" lon="1.21292">
        <ele>139.303711</ele>
        <time>2024-05-03T07:18:45.229Z</time>
      </trkpt>
      <trkpt lat="49.14218" lon="1.21278">
        <ele>139.198781</ele>
        <time>2024-05-03T07:18:47.569Z</time>
      </trkpt>
      <trkpt lat="49.14262" lon="1.21248">
        <ele>138.828532</ele>
        <time>2024-05-03T07:18:56.470Z</time>
      </trkpt>
      <trkpt lat="49.14283" lon="1.21239">
        <ele>138.600273</ele>
        <time>2024-05-03T07:19:00.263Z</time>
      </trkpt>
      <trkpt lat="49.14335" lon="1.21245">
        <ele>138.019684</ele>
        <time>2024-05-03T07:19:09.772Z</time>
      </trkpt>
      <trkpt lat="49.14351" lon="1.21261">
        <ele>137.809142</ele>
        <time>2024-05-03T07:19:12.969Z</time>
      </trkpt>
      <trkpt lat="49.14344" lon="1.2123">
        <ele>137.57159</ele>
        <time>2024-05-03T07:19:19.312Z</time>
      </trkpt>
      <trkpt lat="49.14343" lon="1.21183">
        <ele>137.228291</ele>
        <time>2024-05-03T07:19:28.269Z</time>
      </trkpt>
      <trkpt lat="49.14347" lon="1.21158">
        <ele>137.038223</ele>
        <time>2024-05-03T07:19:33.068Z</time>
      </trkpt>
      <trkpt lat="49.14375" lon="1.21116">
        <ele>136.568497</ele>
        <time>2024-05-03T07:19:44.380Z</time>
      </trkpt>
      <trkpt lat="49.14497" lon="1.20965">
        <ele>134.491758</ele>
        <time>2024-05-03T07:20:29.286Z</time>
      </trkpt>
      <trkpt lat="49.14521" lon="1.20948">
        <ele>134.1663</ele>
        <time>2024-05-03T07:20:36.717Z</time>
      </trkpt>
      <trkpt lat="49.14551" lon="1.20916">
        <ele>133.734837</ele>
        <time>2024-05-03T07:20:46.858Z</time>
      </trkpt>
      <trkpt lat="49.14566" lon="1.2086">
        <ele>133.259823</ele>
        <time>2024-05-03T07:20:58.197Z</time>
      </trkpt>
      <trkpt lat="49.14567" lon="1.20854">
        <ele>133.215186</ele>
        <time>2024-05-03T07:20:59.275Z</time>
      </trkpt>
      <trkpt lat="49.14581" lon="1.20754">
        <ele>132.41223</ele>
        <time>2024-05-03T07:21:19.046Z</time>
      </trkpt>
      <trkpt lat="49.14576" lon="1.20691">
        <ele>132.177571</ele>
        <time>2024-05-03T07:21:31.346Z</time>
      </trkpt>
      <trkpt lat="49.14581" lon="1.2059">
        <ele>131.955489</ele>
        <time>2024-05-03T07:21:51.539Z</time>
      </trkpt>
      <trkpt lat="49.1459" lon="1.20552">
        <ele>131.867303</ele>
        <time>2024-05-03T07:21:59.781Z</time>
      </trkpt>
      <trkpt lat="49.14622" lon="1.20509">
        <ele>131.723047</ele>
        <time>2024-05-03T07:22:13.552Z</time>
      </trkpt>
      <trkpt lat="49.14642" lon="1.20459">
        <ele>131.53859</ele>
        <time>2024-05-03T07:22:25.952Z</time>
      </trkpt>
      <trkpt lat="49.14653" lon="1.20396">
        <ele>131.296133</ele>
        <time>2024-05-03T07:22:39.543Z</time>
      </trkpt>
      <trkpt lat="49.14685" lon="1.20298">
        <ele>130.892752</ele>
        <time>2024-05-03T07:23:01.377Z</time>
      </trkpt>
      <trkpt lat="49.1476" lon="1.20187">
        <ele>129.124729</ele>
        <time>2024-05-03T07:23:30.768Z</time>
      </trkpt>
      <trkpt lat="49.14825" lon="1.20101">
        <ele>127.007624</ele>
        <time>2024-05-03T07:23:53.281Z</time>
      </trkpt>
      <trkpt lat="49.14861" lon="1.20069">
        <ele>126.024245</ele>
        <time>2024-05-03T07:24:03.848Z</time>
      </trkpt>
      <trkpt lat="49.149" lon="1.20007">
        <ele>124.777819</ele>
        <time>2024-05-03T07:24:18.597Z</time>
      </trkpt>
      <trkpt lat="49.14953" lon="1.19954">
        <ele>123.39007</ele>
        <time>2024-05-03T07:24:35.851Z</time>
      </trkpt>
      <trkpt lat="49.14983" lon="1.19938">
        <ele>122.68522</ele>
        <time>2024-05-03T07:24:44.884Z</time>
      </trkpt>
      <trkpt lat="49.15019" lon="1.19913">
        <ele>122.22996</ele>
        <time>2024-05-03T07:24:56.241Z</time>
      </trkpt>
      <trkpt lat="49.15053" lon="1.19876">
        <ele>122.119854</ele>
        <time>2024-05-03T07:25:08.366Z</time>
      </trkpt>
      <trkpt lat="49.15078" lon="1.1986">
        <ele>122.044912</ele>
        <time>2024-05-03T07:25:17.029Z</time>
      </trkpt>
      <trkpt lat="49.15113" lon="1.19847">
        <ele>121.948476</ele>
        <time>2024-05-03T07:25:29.125Z</time>
      </trkpt>
      <trkpt lat="49.15143" lon="1.19815">
        <ele>121.852318</ele>
        <time>2024-05-03T07:25:42.121Z</time>
      </trkpt>
      <trkpt lat="49.15159" lon="1.19802">
        <ele>121.799998</ele>
        <time>2024-05-03T07:25:48.435Z</time>
      </trkpt>
      <trkpt lat="49.1518" lon="1.19793">
        <ele>121.706466</ele>
        <time>2024-05-03T07:25:55.807Z</time>
      </trkpt>
      <trkpt lat="49.15219" lon="1.1978">
        <ele>121.535066</ele>
        <time>2024-05-03T07:26:07.993Z</time>
      </trkpt>
      <trkpt lat="49.15285" lon="1.19785">
        <ele>121.247238</ele>
        <time>2024-05-03T07:26:27.744Z</time>
      </trkpt>
      <trkpt lat="49.15325" lon="1.19772">
        <ele>121.071773</ele>
        <time>2024-05-03T07:26:40.103Z</time>
      </trkpt>
      <trkpt lat="49.15391" lon="1.19741">
        <ele>119.877658</ele>
        <time>2024-05-03T07:27:00.571Z</time>
      </trkpt>
      <trkpt lat="49.15438" lon="1.19736">
        <ele>118.959738</ele>
        <time>2024-05-03T07:27:13.438Z</time>
      </trkpt>
      <trkpt lat="49.1547" lon="1.19723">
        <ele>118.298345</ele>
        <time>2024-05-03T07:27:22.336Z</time>
      </trkpt>
      <trkpt lat="49.15542" lon="1.19711">
        <ele>116.344696</ele>
        <time>2024-05-03T07:27:41.212Z</time>
      </trkpt>
      <trkpt lat="49.15565" lon="1.19702">
        <ele>115.486852</ele>
        <time>2024-05-03T07:27:47.269Z</time>
      </trkpt>
      <trkpt lat="49.15588" lon="1.19682">
        <ele>114.507074</ele>
        <time>2024-05-03T07:27:54.095Z</time>
      </trkpt>
      <trkpt lat="49.15684" lon="1.19648">
        <ele>110.927157</ele>
        <time>2024-05-03T07:28:18.556Z</time>
      </trkpt>
      <trkpt lat="49.15738" lon="1.196">
        <ele>109.125245</ele>
        <time>2024-05-03T07:28:34.190Z</time>
      </trkpt>
      <trkpt lat="49.15762" lon="1.19594">
        <ele>108.42494</ele>
        <time>2024-05-03T07:28:40.429Z</time>
      </trkpt>
      <trkpt lat="49.15789" lon="1.19592">
        <ele>107.636618</ele>
        <time>2024-05-03T07:28:47.628Z</time>
      </trkpt>
      <trkpt lat="49.15803" lon="1.19591">
        <ele>107.21901</ele>
        <time>2024-05-03T07:28:51.419Z</time>
      </trkpt>
      <trkpt lat="49.15839" lon="1.19572">
        <ele>106.104171</ele>
        <time>2024-05-03T07:29:01.803Z</time>
      </trkpt>
      <trkpt lat="49.15884" lon="1.19572">
        <ele>104.419742</ele>
        <time>2024-05-03T07:29:14.211Z</time>
      </trkpt>
      <trkpt lat="49.15922" lon="1.19567">
        <ele>102.829202</ele>
        <time>2024-05-03T07:29:24.896Z</time>
      </trkpt>
      <trkpt lat="49.15988" lon="1.19568">
        <ele>100.130424</ele>
        <time>2024-05-03T07:29:41.642Z</time>
      </trkpt>
      <trkpt lat="49.16012" lon="1.19552">
        <ele>99.053821</ele>
        <time>2024-05-03T07:29:47.725Z</time>
      </trkpt>
      <trkpt lat="49.16055" lon="1.19531">
        <ele>95.125212</ele>
        <time>2024-05-03T07:29:57.758Z</time>
      </trkpt>
      <trkpt lat="49.16104" lon="1.19494">
        <ele>88.719551</ele>
        <time>2024-05-03T07:30:09.341Z</time>
      </trkpt>
      <trkpt lat="49.16125" lon="1.1947">
        <ele>85.641937</ele>
        <time>2024-05-03T07:30:14.768Z</time>
      </trkpt>
      <trkpt lat="49.16189" lon="1.19422">
        <ele>77.237588</ele>
        <time>2024-05-03T07:30:29.388Z</time>
      </trkpt>
      <trkpt lat="49.16309" lon="1.19358">
        <ele>61.609724</ele>
        <time>2024-05-03T07:30:55.232Z</time>
      </trkpt>
      <trkpt lat="49.16376" lon="1.19342">
        <ele>54.506283</ele>
        <time>2024-05-03T07:31:10.018Z</time>
      </trkpt>
      <trkpt lat="49.16391" lon="1.19332">
        <ele>53.866696</ele>
        <time>2024-05-03T07:31:13.856Z</time>
      </trkpt>
      <trkpt lat="49.16463" lon="1.193">
        <ele>50.983265</ele>
        <time>2024-05-03T07:31:32.607Z</time>
      </trkpt>
      <trkpt lat="49.16493" lon="1.19301">
        <ele>49.816894</ele>
        <time>2024-05-03T07:31:41.008Z</time>
      </trkpt>
      <trkpt lat="49.16508" lon="1.1931">
        <ele>49.190833</ele>
        <time>2024-05-03T07:31:45.547Z</time>
      </trkpt>
      <trkpt lat="49.16525" lon="1.19335">
        <ele>48.309939</ele>
        <time>2024-05-03T07:31:52.223Z</time>
      </trkpt>
      <trkpt lat="49.16582" lon="1.1939">
        <ele>47.195359</ele>
        <time>2024-05-03T07:32:12.878Z</time>
      </trkpt>
      <trkpt lat="49.16605" lon="1.19429">
        <ele>46.698562</ele>
        <time>2024-05-03T07:32:23.114Z</time>
      </trkpt>
      <trkpt lat="49.16641" lon="1.19552">
        <ele>45.252688</ele>
        <time>2024-05-03T07:32:47.361Z</time>
      </trkpt>
      <trkpt lat="49.16651" lon="1.19573">
        <ele>44.473938</ele>
        <time>2024-05-03T07:32:52.047Z</time>
      </trkpt>
      <trkpt lat="49.16666" lon="1.19588">
        <ele>43.713954</ele>
        <time>2024-05-03T07:32:56.404Z</time>
      </trkpt>
      <trkpt lat="49.16679" lon="1.1959">
        <ele>43.129213</ele>
        <time>2024-05-03T07:32:59.741Z</time>
      </trkpt>
      <trkpt lat="49.16691" lon="1.19574">
        <ele>42.441796</ele>
        <time>2024-05-03T07:33:03.638Z</time>
      </trkpt>
      <trkpt lat="49.16702" lon="1.19551">
        <ele>41.642231</ele>
        <time>2024-05-03T07:33:08.148Z</time>
      </trkpt>
      <trkpt lat="49.16715" lon="1.19476">
        <ele>39.412988</ele>
        <time>2024-05-03T07:33:20.535Z</time>
      </trkpt>
      <trkpt lat="49.16719" lon="1.19432">
        <ele>38.159089</ele>
        <time>2024-05-03T07:33:27.302Z</time>
      </trkpt>
      <trkpt lat="49.16709" lon="1.19306">
        <ele>33.875991</ele>
        <time>2024-05-03T07:33:42.160Z</time>
      </trkpt>
      <trkpt lat="49.16707" lon="1.19243">
        <ele>31.699425</ele>
        <time>2024-05-03T07:33:49.692Z</time>
      </trkpt>
      <trkpt lat="49.16709" lon="1.19155">
        <ele>28.702155</ele>
        <time>2024-05-03T07:34:00.107Z</time>
      </trkpt>
      <trkpt lat="49.16737" lon="1.19154">
        <ele>27.900644</ele>
        <time>2024-05-03T07:34:04.047Z</time>
      </trkpt>
      <trkpt lat="49.16763" lon="1.19147">
        <ele>27.530213</ele>
        <time>2024-05-03T07:34:07.690Z</time>
      </trkpt>
      <trkpt lat="49.17101" lon="1.18989">
        <ele>24.599551</ele>
        <time>2024-05-03T07:35:12.524Z</time>
      </trkpt>
      <trkpt lat="49.17168" lon="1.18951">
        <ele>23.921296</ele>
        <time>2024-05-03T07:35:24.357Z</time>
      </trkpt>
      <trkpt lat="49.1731" lon="1.18858">
        <ele>24.30062</ele>
        <time>2024-05-03T07:35:49.705Z</time>
      </trkpt>
      <trkpt lat="49.17394" lon="1.188">
        <ele>25.451444</ele>
        <time>2024-05-03T07:36:19.487Z</time>
      </trkpt>
      <trkpt lat="49.1739" lon="1.18821">
        <ele>26.283199</ele>
        <time>2024-05-03T07:36:25.908Z</time>
      </trkpt>
      <trkpt lat="49.17378" lon="1.1889">
        <ele>29.836306</ele>
        <time>2024-05-03T07:36:49.795Z</time>
      </trkpt>
      <trkpt lat="49.17376" lon="1.18918">
        <ele>31.237289</ele>
        <time>2024-05-03T07:37:00.416Z</time>
      </trkpt>
      <trkpt lat="49.17374" lon="1.19018">
        <ele>36.230701</ele>
        <time>2024-05-03T07:37:41.816Z</time>
      </trkpt>
      <trkpt lat="49.17383" lon="1.1917">
        <ele>43.647515</ele>
        <time>2024-05-03T07:38:49.009Z</time>
      </trkpt>
      <trkpt lat="49.17382" lon="1.19201">
        <ele>45.136255</ele>
        <time>2024-05-03T07:39:01.625Z</time>
      </trkpt>
      <trkpt lat="49.17376" lon="1.19227">
        <ele>46.460894</ele>
        <time>2024-05-03T07:39:11.333Z</time>
      </trkpt>
      <trkpt lat="49.17356" lon="1.19265">
        <ele>48.797406</ele>
        <time>2024-05-03T07:39:27.733Z</time>
      </trkpt>
      <trkpt lat="49.17318" lon="1.19335">
        <ele>52.760735</ele>
        <time>2024-05-03T07:39:55.562Z</time>
      </trkpt>
      <trkpt lat="49.17279" lon="1.1941">
        <ele>55.135574</ele>
        <time>2024-05-03T07:40:27.843Z</time>
      </trkpt>
      <trkpt lat="49.1726" lon="1.19502">
        <ele>57.513144</ele>
        <time>2024-05-03T07:40:59.722Z</time>
      </trkpt>
      <trkpt lat="49.1725" lon="1.19589">
        <ele>59.601601</ele>
        <time>2024-05-03T07:41:25.789Z</time>
      </trkpt>
      <trkpt lat="49.1725" lon="1.19682">
        <ele>61.44302</ele>
        <time>2024-05-03T07:41:52.990Z</time>
      </trkpt>
      <trkpt lat="49.1726" lon="1.1975">
        <ele>62.83054</ele>
        <time>2024-05-03T07:42:14.656Z</time>
      </trkpt>
      <trkpt lat="49.17287" lon="1.19809">
        <ele>64.249922</ele>
        <time>2024-05-03T07:42:37.369Z</time>
      </trkpt>
      <trkpt lat="49.1732" lon="1.19849">
        <ele>65.936698</ele>
        <time>2024-05-03T07:42:58.035Z</time>
      </trkpt>
      <trkpt lat="49.17389" lon="1.19922">
        <ele>69.579056</ele>
        <time>2024-05-03T07:43:39.243Z</time>
      </trkpt>
      <trkpt lat="49.17406" lon="1.19961">
        <ele>70.916365</ele>
        <time>2024-05-03T07:43:56.373Z</time>
      </trkpt>
      <trkpt lat="49.17418" lon="1.20001">
        <ele>72.178307</ele>
        <time>2024-05-03T07:44:13.694Z</time>
      </trkpt>
      <trkpt lat="49.17428" lon="1.20048">
        <ele>74.727673</ele>
        <time>2024-05-03T07:44:34.434Z</time>
      </trkpt>
      <trkpt lat="49.17441" lon="1.20086">
        <ele>77.159108</ele>
        <time>2024-05-03T07:44:53.181Z</time>
      </trkpt>
      <trkpt lat="49.17503" lon="1.20159">
        <ele>84.099484</ele>
        <time>2024-05-03T07:45:53.483Z</time>
      </trkpt>
      <trkpt lat="49.17517" lon="1.2026">
        <ele>90.421223</ele>
        <time>2024-05-03T07:46:52.688Z</time>
      </trkpt>
      <trkpt lat="49.17498" lon="1.20349">
        <ele>96.820704</ele>
        <time>2024-05-03T07:47:49.228Z</time>
      </trkpt>
      <trkpt lat="49.17433" lon="1.20471">
        <ele>107.359886</ele>
        <time>2024-05-03T07:49:13.865Z</time>
      </trkpt>
      <trkpt lat="49.17427" lon="1.20545">
        <ele>110.212967</ele>
        <time>2024-05-03T07:49:48.039Z</time>
      </trkpt>
      <trkpt lat="49.17388" lon="1.20527">
        <ele>112.550989</ele>
        <time>2024-05-03T07:50:12.967Z</time>
      </trkpt>
      <trkpt lat="49.17397" lon="1.20576">
        <ele>114.497397</ele>
        <time>2024-05-03T07:50:31.750Z</time>
      </trkpt>
      <trkpt lat="49.17446" lon="1.20658">
        <ele>118.297376</ele>
        <time>2024-05-03T07:51:07.732Z</time>
      </trkpt>
      <trkpt lat="49.17468" lon="1.20733">
        <ele>120.035407</ele>
        <time>2024-05-03T07:51:32.467Z</time>
      </trkpt>
      <trkpt lat="49.17458" lon="1.20795">
        <ele>121.392379</ele>
        <time>2024-05-03T07:51:52.303Z</time>
      </trkpt>
      <trkpt lat="49.1744" lon="1.2083">
        <ele>122.348171</ele>
        <time>2024-05-03T07:52:06.609Z</time>
      </trkpt>
      <trkpt lat="49.17437" lon="1.2108">
        <ele>127.195321</ele>
        <time>2024-05-03T07:53:24.972Z</time>
      </trkpt>
      <trkpt lat="49.17419" lon="1.2126">
        <ele>129.978635</ele>
        <time>2024-05-03T07:54:15.692Z</time>
      </trkpt>
      <trkpt lat="49.1737" lon="1.21408">
        <ele>132.052755</ele>
        <time>2024-05-03T07:54:59.511Z</time>
      </trkpt>
      <trkpt lat="49.17304" lon="1.21394">
        <ele>132.789482</ele>
        <time>2024-05-03T07:55:26.055Z</time>
      </trkpt>
      <trkpt lat="49.1725" lon="1.21405">
        <ele>133.351735</ele>
        <time>2024-05-03T07:55:46.225Z</time>
      </trkpt>
      <trkpt lat="49.17161" lon="1.21422">
        <ele>134.120109</ele>
        <time>2024-05-03T07:56:16.849Z</time>
      </trkpt>
      <trkpt lat="49.17082" lon="1.21467">
        <ele>134.442872</ele>
        <time>2024-05-03T07:56:43.817Z</time>
      </trkpt>
      <trkpt lat="49.17032" lon="1.21557">
        <ele>134.793006</ele>
        <time>2024-05-03T07:57:10.133Z</time>
      </trkpt>
      <trkpt lat="49.17084" lon="1.21727">
        <ele>136.435454</ele>
        <time>2024-05-03T07:57:56.912Z</time>
      </trkpt>
      <trkpt lat="49.17069" lon="1.21741">
        <ele>136.667224</ele>
        <time>2024-05-03T07:58:03.842Z</time>
      </trkpt>
      <trkpt lat="49.17032" lon="1.21775">
        <ele>137.306403</ele>
        <time>2024-05-03T07:58:22.138Z</time>
      </trkpt>
      <trkpt lat="49.17002" lon="1.21912">
        <ele>139.088265</ele>
        <time>2024-05-03T07:59:00.838Z</time>
      </trkpt>
      <trkpt lat="49.17005" lon="1.22046">
        <ele>140.725606</ele>
        <time>2024-05-03T07:59:36.770Z</time>
      </trkpt>
      <trkpt lat="49.17059" lon="1.22152">
        <ele>142.289659</ele>
        <time>2024-05-03T08:00:14.021Z</time>
      </trkpt>
      <trkpt lat="49.1712" lon="1.22191">
        <ele>143.449304</ele>
        <time>2024-05-03T08:00:32.995Z</time>
      </trkpt>
      <trkpt lat="49.17198" lon="1.22257">
        <ele>144.502145</ele>
        <time>2024-05-03T08:00:56.001Z</time>
      </trkpt>
      <trkpt lat="49.17204" lon="1.22259">
        <ele>144.575267</ele>
        <time>2024-05-03T08:00:57.715Z</time>
      </trkpt>
      <trkpt lat="49.17259" lon="1.22222">
        <ele>145.216169</ele>
        <time>2024-05-03T08:01:12.590Z</time>
      </trkpt>
      <trkpt lat="49.1728" lon="1.22285">
        <ele>145.70924</ele>
        <time>2024-05-03T08:01:24.258Z</time>
      </trkpt>
      <trkpt lat="49.17288" lon="1.22315">
        <ele>145.911142</ele>
        <time>2024-05-03T08:01:29.393Z</time>
      </trkpt>
      <trkpt lat="49.17292" lon="1.2235">
        <ele>146.136715</ele>
        <time>2024-05-03T08:01:35.230Z</time>
      </trkpt>
      <trkpt lat="49.17293" lon="1.22382">
        <ele>146.338523</ele>
        <time>2024-05-03T08:01:40.414Z</time>
      </trkpt>
      <trkpt lat="49.17288" lon="1.22465">
        <ele>146.867083</ele>
        <time>2024-05-03T08:01:54.098Z</time>
      </trkpt>
      <trkpt lat="49.17283" lon="1.2251">
        <ele>147.152281</ele>
        <time>2024-05-03T08:02:01.586Z</time>
      </trkpt>
      <trkpt lat="49.17274" lon="1.22596">
        <ele>147.661035</ele>
        <time>2024-05-03T08:02:16.189Z</time>
      </trkpt>
      <trkpt lat="49.17272" lon="1.22618">
        <ele>147.782552</ele>
        <time>2024-05-03T08:02:19.723Z</time>
      </trkpt>
      <trkpt lat="49.17265" lon="1.22727">
        <ele>148.396591</ele>
        <time>2024-05-03T08:02:37.234Z</time>
      </trkpt>
      <trkpt lat="49.17259" lon="1.22767">
        <ele>148.622418</ele>
        <time>2024-05-03T08:02:43.603Z</time>
      </trkpt>
      <trkpt lat="49.17232" lon="1.23024">
        <ele>149.679228</ele>
        <time>2024-05-03T08:03:43.136Z</time>
      </trkpt>
      <trkpt lat="49.17242" lon="1.23207">
        <ele>149.993741</ele>
        <time>2024-05-03T08:04:23.530Z</time>
      </trkpt>
      <trkpt lat="49.17269" lon="1.23492">
        <ele>149.845647</ele>
        <time>2024-05-03T08:05:22.774Z</time>
      </trkpt>
      <trkpt lat="49.17358" lon="1.23984">
        <ele>147.80263</ele>
        <time>2024-05-03T08:07:04.496Z</time>
      </trkpt>
      <trkpt lat="49.1737" lon="1.24165">
        <ele>145.96882</ele>
        <time>2024-05-03T08:07:37.379Z</time>
      </trkpt>
      <trkpt lat="49.1738" lon="1.24393">
        <ele>141.933314</ele>
        <time>2024-05-03T08:08:16.152Z</time>
      </trkpt>
      <trkpt lat="49.17388" lon="1.24593">
        <ele>139.541264</ele>
        <time>2024-05-03T08:08:51.340Z</time>
      </trkpt>
      <trkpt lat="49.17214" lon="1.24777">
        <ele>137.898802</ele>
        <time>2024-05-03T08:09:56.430Z</time>
      </trkpt>
      <trkpt lat="49.17188" lon="1.24783">
        <ele>137.820251</ele>
        <time>2024-05-03T08:10:04.599Z</time>
      </trkpt>
      <trkpt lat="49.17106" lon="1.24747">
        <ele>137.127624</ele>
        <time>2024-05-03T08:10:30.936Z</time>
      </trkpt>
      <trkpt lat="49.17031" lon="1.2471">
        <ele>136.342878</ele>
        <time>2024-05-03T08:10:54.193Z</time>
      </trkpt>
      <trkpt lat="49.16862" lon="1.24739">
        <ele>133.385195</ele>
        <time>2024-05-03T08:11:40.610Z</time>
      </trkpt>
      <trkpt lat="49.16882" lon="1.24952">
        <ele>130.902045</ele>
        <time>2024-05-03T08:12:19.145Z</time>
      </trkpt>
      <trkpt lat="49.16879" lon="1.25013">
        <ele>130.232959</ele>
        <time>2024-05-03T08:12:30.363Z</time>
      </trkpt>
      <trkpt lat="49.16884" lon="1.25088">
        <ele>129.421225</ele>
        <time>2024-05-03T08:12:44.443Z</time>
      </trkpt>
      <trkpt lat="49.16894" lon="1.25161">
        <ele>128.843811</ele>
        <time>2024-05-03T08:12:58.819Z</time>
      </trkpt>
      <trkpt lat="49.16892" lon="1.25172">
        <ele>128.751398</ele>
        <time>2024-05-03T08:13:01.092Z</time>
      </trkpt>
      <trkpt lat="49.16884" lon="1.25181">
        <ele>128.633784</ele>
        <time>2024-05-03T08:13:03.896Z</time>
      </trkpt>
      <trkpt lat="49.16852" lon="1.25216">
        <ele>128.161733</ele>
        <time>2024-05-03T08:13:12.843Z</time>
      </trkpt>
      <trkpt lat="49.16817" lon="1.2523">
        <ele>127.735347</ele>
        <time>2024-05-03T08:13:20.895Z</time>
      </trkpt>
      <trkpt lat="49.16803" lon="1.25249">
        <ele>127.515767</ele>
        <time>2024-05-03T08:13:25.146Z</time>
      </trkpt>
      <trkpt lat="49.16828" lon="1.25273">
        <ele>127.108369</ele>
        <time>2024-05-03T08:13:29.923Z</time>
      </trkpt>
      <trkpt lat="49.16858" lon="1.253">
        <ele>126.515527</ele>
        <time>2024-05-03T08:13:35.544Z</time>
      </trkpt>
      <trkpt lat="49.16871" lon="1.25313">
        <ele>126.240695</ele>
        <time>2024-05-03T08:13:38.086Z</time>
      </trkpt>
      <trkpt lat="49.16885" lon="1.25326">
        <ele>125.958536</ele>
        <time>2024-05-03T08:13:40.782Z</time>
      </trkpt>
      <trkpt lat="49.16743" lon="1.25752">
        <ele>120.338556</ele>
        <time>2024-05-03T08:15:06.733Z</time>
      </trkpt>
      <trkpt lat="49.16731" lon="1.25807">
        <ele>119.841211</ele>
        <time>2024-05-03T08:15:17.386Z</time>
      </trkpt>
      <trkpt lat="49.16733" lon="1.25937">
        <ele>118.714742</ele>
        <time>2024-05-03T08:15:42.001Z</time>
      </trkpt>
      <trkpt lat="49.16771" lon="1.25968">
        <ele>118.159528</ele>
        <time>2024-05-03T08:15:54.624Z</time>
      </trkpt>
      <trkpt lat="49.16813" lon="1.25994">
        <ele>117.600192</ele>
        <time>2024-05-03T08:16:07.982Z</time>
      </trkpt>
      <trkpt lat="49.17015" lon="1.26549">
        <ele>112.266633</ele>
        <time>2024-05-03T08:18:07.066Z</time>
      </trkpt>
      <trkpt lat="49.17112" lon="1.26801">
        <ele>109.332374</ele>
        <time>2024-05-03T08:19:00.749Z</time>
      </trkpt>
      <trkpt lat="49.17164" lon="1.26938">
        <ele>107.902922</ele>
        <time>2024-05-03T08:19:29.839Z</time>
      </trkpt>
      <trkpt lat="49.17174" lon="1.26969">
        <ele>107.638089</ele>
        <time>2024-05-03T08:19:36.115Z</time>
      </trkpt>
      <trkpt lat="49.1727" lon="1.2719">
        <ele>106.497409</ele>
        <time>2024-05-03T08:20:27.265Z</time>
      </trkpt>
      <trkpt lat="49.1728" lon="1.27261">
        <ele>106.56532</ele>
        <time>2024-05-03T08:20:42.631Z</time>
      </trkpt>
      <trkpt lat="49.17256" lon="1.27273">
        <ele>106.601491</ele>
        <time>2024-05-03T08:20:48.522Z</time>
      </trkpt>
      <trkpt lat="49.17239" lon="1.27281">
        <ele>106.62604</ele>
        <time>2024-05-03T08:20:52.951Z</time>
      </trkpt>
      <trkpt lat="49.17159" lon="1.27315">
        <ele>108.44815</ele>
        <time>2024-05-03T08:21:17.475Z</time>
      </trkpt>
      <trkpt lat="49.17133" lon="1.27332">
        <ele>109.257033</ele>
        <time>2024-05-03T08:21:27.154Z</time>
      </trkpt>
      <trkpt lat="49.16988" lon="1.27487">
        <ele>115.484743</ele>
        <time>2024-05-03T08:22:36.233Z</time>
      </trkpt>
      <trkpt lat="49.16939" lon="1.27538">
        <ele>118.005668</ele>
        <time>2024-05-03T08:23:01.707Z</time>
      </trkpt>
      <trkpt lat="49.16913" lon="1.27552">
        <ele>119.177112</ele>
        <time>2024-05-03T08:23:13.690Z</time>
      </trkpt>
      <trkpt lat="49.16871" lon="1.2755">
        <ele>121.190019</ele>
        <time>2024-05-03T08:23:32.162Z</time>
      </trkpt>
      <trkpt lat="49.1684" lon="1.27541">
        <ele>122.719853</ele>
        <time>2024-05-03T08:23:46.529Z</time>
      </trkpt>
      <trkpt lat="49.16741" lon="1.2752">
        <ele>127.593761</ele>
        <time>2024-05-03T08:24:32.253Z</time>
      </trkpt>
      <trkpt lat="49.16715" lon="1.27528">
        <ele>128.633898</ele>
        <time>2024-05-03T08:24:43.566Z</time>
      </trkpt>
      <trkpt lat="49.16704" lon="1.27543">
        <ele>129.140275</ele>
        <time>2024-05-03T08:24:49.678Z</time>
      </trkpt>
      <trkpt lat="49.1669" lon="1.27574">
        <ele>129.977286</ele>
        <time>2024-05-03T08:24:59.814Z</time>
      </trkpt>
      <trkpt lat="49.16687" lon="1.27617">
        <ele>130.926178</ele>
        <time>2024-05-03T08:25:10.981Z</time>
      </trkpt>
      <trkpt lat="49.16693" lon="1.2772">
        <ele>133.226091</ele>
        <time>2024-05-03T08:25:36.166Z</time>
      </trkpt>
      <trkpt lat="49.16707" lon="1.27967">
        <ele>135.624376</ele>
        <time>2024-05-03T08:26:20.211Z</time>
      </trkpt>
      <trkpt lat="49.16719" lon="1.28043">
        <ele>136.090777</ele>
        <time>2024-05-03T08:26:30.169Z</time>
      </trkpt>
      <trkpt lat="49.16746" lon="1.28238">
        <ele>135.416721</ele>
        <time>2024-05-03T08:26:53.393Z</time>
      </trkpt>
      <trkpt lat="49.16773" lon="1.28477">
        <ele>134.166519</ele>
        <time>2024-05-03T08:27:20.453Z</time>
      </trkpt>
      <trkpt lat="49.16775" lon="1.28521">
        <ele>133.90446</ele>
        <time>2024-05-03T08:27:25.420Z</time>
      </trkpt>
      <trkpt lat="49.16769" lon="1.28707">
        <ele>132.947464</ele>
        <time>2024-05-03T08:27:46.045Z</time>
      </trkpt>
      <trkpt lat="49.16775" lon="1.28828">
        <ele>132.361174</ele>
        <time>2024-05-03T08:27:59.999Z</time>
      </trkpt>
      <trkpt lat="49.16775" lon="1.28873">
        <ele>132.167863</ele>
        <time>2024-05-03T08:28:05.246Z</time>
      </trkpt>
      <trkpt lat="49.16839" lon="1.28871">
        <ele>131.800016</ele>
        <time>2024-05-03T08:28:17.735Z</time>
      </trkpt>
      <trkpt lat="49.16899" lon="1.28874">
        <ele>131.45941</ele>
        <time>2024-05-03T08:28:29.114Z</time>
      </trkpt>
      <trkpt lat="49.16993" lon="1.28895">
        <ele>130.400983</ele>
        <time>2024-05-03T08:28:46.201Z</time>
      </trkpt>
      <trkpt lat="49.17008" lon="1.28901">
        <ele>130.162382</ele>
        <time>2024-05-03T08:28:48.970Z</time>
      </trkpt>
      <trkpt lat="49.17024" lon="1.28907">
        <ele>129.91731</ele>
        <time>2024-05-03T08:28:51.844Z</time>
      </trkpt>
      <trkpt lat="49.17094" lon="1.28935">
        <ele>128.795158</ele>
        <time>2024-05-03T08:29:03.881Z</time>
      </trkpt>
      <trkpt lat="49.17123" lon="1.28953">
        <ele>128.289655</ele>
        <time>2024-05-03T08:29:08.855Z</time>
      </trkpt>
      <trkpt lat="49.17104" lon="1.29007">
        <ele>127.556772</ele>
        <time>2024-05-03T08:29:15.402Z</time>
      </trkpt>
      <trkpt lat="49.17118" lon="1.29013">
        <ele>127.28808</ele>
        <time>2024-05-03T08:29:17.657Z</time>
      </trkpt>
      <trkpt lat="49.17145" lon="1.29017">
        <ele>126.800666</ele>
        <time>2024-05-03T08:29:21.894Z</time>
      </trkpt>
      <trkpt lat="49.17148" lon="1.29018">
        <ele>126.753049</ele>
        <time>2024-05-03T08:29:22.306Z</time>
      </trkpt>
      <trkpt lat="49.17161" lon="1.29024">
        <ele>126.504553</ele>
        <time>2024-05-03T08:29:24.529Z</time>
      </trkpt>
      <trkpt lat="49.17181" lon="1.29047">
        <ele>126.044979</ele>
        <time>2024-05-03T08:29:28.537Z</time>
      </trkpt>
      <trkpt lat="49.17192" lon="1.29065">
        <ele>125.754497</ele>
        <time>2024-05-03T08:29:31.080Z</time>
      </trkpt>
      <trkpt lat="49.17194" lon="1.29074">
        <ele>125.631387</ele>
        <time>2024-05-03T08:29:32.149Z</time>
      </trkpt>
      <trkpt lat="49.17194" lon="1.29089">
        <ele>125.456248</ele>
        <time>2024-05-03T08:29:33.621Z</time>
      </trkpt>
      <trkpt lat="49.17179" lon="1.29172">
        <ele>125.015663</ele>
        <time>2024-05-03T08:29:42.491Z</time>
      </trkpt>
      <trkpt lat="49.17174" lon="1.29199">
        <ele>124.944937</ele>
        <time>2024-05-03T08:29:45.570Z</time>
      </trkpt>
      <trkpt lat="49.1717" lon="1.2922">
        <ele>124.891241</ele>
        <time>2024-05-03T08:29:48.112Z</time>
      </trkpt>
      <trkpt lat="49.1717" lon="1.29228">
        <ele>124.869242</ele>
        <time>2024-05-03T08:29:49.118Z</time>
      </trkpt>
      <trkpt lat="49.17174" lon="1.29234">
        <ele>124.848061</ele>
        <time>2024-05-03T08:29:50.108Z</time>
      </trkpt>
      <trkpt lat="49.17243" lon="1.29254">
        <ele>124.581737</ele>
        <time>2024-05-03T08:30:04.379Z</time>
      </trkpt>
      <trkpt lat="49.17242" lon="1.29271">
        <ele>124.540632</ele>
        <time>2024-05-03T08:30:08.322Z</time>
      </trkpt>
      <trkpt lat="49.17227" lon="1.29354">
        <ele>124.860708</ele>
        <time>2024-05-03T08:30:27.928Z</time>
      </trkpt>
      <trkpt lat="49.1717" lon="1.29716">
        <ele>126.89538</ele>
        <time>2024-05-03T08:31:58.011Z</time>
      </trkpt>
      <trkpt lat="49.17171" lon="1.29738">
        <ele>127.004861</ele>
        <time>2024-05-03T08:32:03.234Z</time>
      </trkpt>
      <trkpt lat="49.17179" lon="1.29755">
        <ele>127.104511</ele>
        <time>2024-05-03T08:32:07.669Z</time>
      </trkpt>
      <trkpt lat="49.17178" lon="1.29797">
        <ele>127.307092</ele>
        <time>2024-05-03T08:32:17.027Z</time>
      </trkpt>
      <trkpt lat="49.17187" lon="1.29895">
        <ele>127.311555</ele>
        <time>2024-05-03T08:32:38.138Z</time>
      </trkpt>
      <trkpt lat="49.17083" lon="1.29969">
        <ele>126.969156</ele>
        <time>2024-05-03T08:33:00.211Z</time>
      </trkpt>
      <trkpt lat="49.16807" lon="1.30168">
        <ele>124.74882</ele>
        <time>2024-05-03T08:33:56.148Z</time>
      </trkpt>
      <trkpt lat="49.16802" lon="1.3018">
        <ele>124.675008</ele>
        <time>2024-05-03T08:33:57.845Z</time>
      </trkpt>
      <trkpt lat="49.168" lon="1.30203">
        <ele>124.552581</ele>
        <time>2024-05-03T08:34:00.890Z</time>
      </trkpt>
      <trkpt lat="49.16877" lon="1.30636">
        <ele>122.079446</ele>
        <time>2024-05-03T08:34:57.208Z</time>
      </trkpt>
      <trkpt lat="49.16885" lon="1.30738">
        <ele>121.566474</ele>
        <time>2024-05-03T08:35:10.094Z</time>
      </trkpt>
      <trkpt lat="49.16906" lon="1.30952">
        <ele>121.533124</ele>
        <time>2024-05-03T08:35:39.193Z</time>
      </trkpt>
      <trkpt lat="49.16962" lon="1.31205">
        <ele>123.048443</ele>
        <time>2024-05-03T08:36:25.724Z</time>
      </trkpt>
      <trkpt lat="49.16966" lon="1.31224">
        <ele>123.226871</ele>
        <time>2024-05-03T08:36:29.552Z</time>
      </trkpt>
      <trkpt lat="49.1697" lon="1.31364">
        <ele>124.442484</ele>
        <time>2024-05-03T08:36:56.676Z</time>
      </trkpt>
      <trkpt lat="49.1698" lon="1.31469">
        <ele>125.19988</ele>
        <time>2024-05-03T08:37:17.838Z</time>
      </trkpt>
      <trkpt lat="49.16958" lon="1.31676">
        <ele>125.707013</ele>
        <time>2024-05-03T08:37:52.085Z</time>
      </trkpt>
      <trkpt lat="49.16914" lon="1.31787">
        <ele>124.516546</ele>
        <time>2024-05-03T08:38:07.722Z</time>
      </trkpt>
      <trkpt lat="49.16822" lon="1.31987">
        <ele>120.169272</ele>
        <time>2024-05-03T08:38:33.850Z</time>
      </trkpt>
      <trkpt lat="49.1678" lon="1.32189">
        <ele>114.027144</ele>
        <time>2024-05-03T08:38:55.750Z</time>
      </trkpt>
      <trkpt lat="49.16772" lon="1.32239">
        <ele>112.147702</ele>
        <time>2024-05-03T08:39:00.776Z</time>
      </trkpt>
      <trkpt lat="49.16766" lon="1.32249">
        <ele>111.630188</ele>
        <time>2024-05-03T08:39:02.136Z</time>
      </trkpt>
      <trkpt lat="49.16747" lon="1.32266">
        <ele>110.404264</ele>
        <time>2024-05-03T08:39:05.348Z</time>
      </trkpt>
      <trkpt lat="49.16712" lon="1.32294">
        <ele>108.177161</ele>
        <time>2024-05-03T08:39:11.043Z</time>
      </trkpt>
      <trkpt lat="49.16697" lon="1.32302">
        <ele>107.209193</ele>
        <time>2024-05-03T08:39:13.333Z</time>
      </trkpt>
      <trkpt lat="49.16666" lon="1.32325">
        <ele>104.655686</ele>
        <time>2024-05-03T08:39:17.526Z</time>
      </trkpt>
      <trkpt lat="49.16582" lon="1.32409">
        <ele>97.076999</ele>
        <time>2024-05-03T08:39:29.828Z</time>
      </trkpt>
      <trkpt lat="49.16562" lon="1.32434">
        <ele>95.164911</ele>
        <time>2024-05-03T08:39:33.029Z</time>
      </trkpt>
      <trkpt lat="49.16542" lon="1.32469">
        <ele>93.436082</ele>
        <time>2024-05-03T08:39:37.105Z</time>
      </trkpt>
      <trkpt lat="49.16508" lon="1.32548">
        <ele>91.350019</ele>
        <time>2024-05-03T08:39:45.426Z</time>
      </trkpt>
      <trkpt lat="49.16505" lon="1.32552">
        <ele>91.215897</ele>
        <time>2024-05-03T08:39:45.953Z</time>
      </trkpt>
      <trkpt lat="49.16496" lon="1.32562">
        <ele>90.84575</ele>
        <time>2024-05-03T08:39:47.426Z</time>
      </trkpt>
      <trkpt lat="49.165" lon="1.32572">
        <ele>90.577823</ele>
        <time>2024-05-03T08:39:49.609Z</time>
      </trkpt>
      <trkpt lat="49.16501" lon="1.32585">
        <ele>90.286101</ele>
        <time>2024-05-03T08:39:51.841Z</time>
      </trkpt>
      <trkpt lat="49.16503" lon="1.3259">
        <ele>90.156807</ele>
        <time>2024-05-03T08:39:52.824Z</time>
      </trkpt>
      <trkpt lat="49.16508" lon="1.32592">
        <ele>89.992097</ele>
        <time>2024-05-03T08:39:54.063Z</time>
      </trkpt>
      <trkpt lat="49.16524" lon="1.32601">
        <ele>89.430754</ele>
        <time>2024-05-03T08:39:58.602Z</time>
      </trkpt>
      <trkpt lat="49.1654" lon="1.3263">
        <ele>88.572677</ele>
        <time>2024-05-03T08:40:05.676Z</time>
      </trkpt>
      <trkpt lat="49.16563" lon="1.32645">
        <ele>87.842234</ele>
        <time>2024-05-03T08:40:13.229Z</time>
      </trkpt>
      <trkpt lat="49.16539" lon="1.3269">
        <ele>87.812841</ele>
        <time>2024-05-03T08:40:25.403Z</time>
      </trkpt>
      <trkpt lat="49.16632" lon="1.32668">
        <ele>87.740225</ele>
        <time>2024-05-03T08:40:58.760Z</time>
      </trkpt>
      <trkpt lat="49.16689" lon="1.32658">
        <ele>87.644911</ele>
        <time>2024-05-03T08:41:15.851Z</time>
      </trkpt>
      <trkpt lat="49.16793" lon="1.32637">
        <ele>87.143644</ele>
        <time>2024-05-03T08:41:46.698Z</time>
      </trkpt>
      <trkpt lat="49.16807" lon="1.32639">
        <ele>87.074596</ele>
        <time>2024-05-03T08:41:51.076Z</time>
      </trkpt>
      <trkpt lat="49.16839" lon="1.32651">
        <ele>86.920555</ele>
        <time>2024-05-03T08:42:01.151Z</time>
      </trkpt>
      <trkpt lat="49.16896" lon="1.32652">
        <ele>86.015617</ele>
        <time>2024-05-03T08:42:22.223Z</time>
      </trkpt>
      <trkpt lat="49.16927" lon="1.32639">
        <ele>85.387032</ele>
        <time>2024-05-03T08:42:32.358Z</time>
      </trkpt>
      <trkpt lat="49.16936" lon="1.32622">
        <ele>85.096118</ele>
        <time>2024-05-03T08:42:36.719Z</time>
      </trkpt>
      <trkpt lat="49.16954" lon="1.32618">
        <ele>84.737894</ele>
        <time>2024-05-03T08:42:41.429Z</time>
      </trkpt>
      <trkpt lat="49.16989" lon="1.32569">
        <ele>83.807475</ele>
        <time>2024-05-03T08:42:53.191Z</time>
      </trkpt>
      <trkpt lat="49.17004" lon="1.3256">
        <ele>83.50255</ele>
        <time>2024-05-03T08:42:56.589Z</time>
      </trkpt>
      <trkpt lat="49.16998" lon="1.32526">
        <ele>82.99285</ele>
        <time>2024-05-03T08:43:02.793Z</time>
      </trkpt>
      <trkpt lat="49.17004" lon="1.3256">
        <ele>82.44719</ele>
        <time>2024-05-03T08:43:08.656Z</time>
      </trkpt>
      <trkpt lat="49.17013" lon="1.32587">
        <ele>81.987636</ele>
        <time>2024-05-03T08:43:13.562Z</time>
      </trkpt>
      <trkpt lat="49.1702" lon="1.32617">
        <ele>81.506363</ele>
        <time>2024-05-03T08:43:19.806Z</time>
      </trkpt>
      <trkpt lat="49.17026" lon="1.32633">
        <ele>81.230776</ele>
        <time>2024-05-03T08:43:22.799Z</time>
      </trkpt>
      <trkpt lat="49.17035" lon="1.32649">
        <ele>80.899649</ele>
        <time>2024-05-03T08:43:26.518Z</time>
      </trkpt>
      <trkpt lat="49.17042" lon="1.3266">
        <ele>80.657702</ele>
        <time>2024-05-03T08:43:30.483Z</time>
      </trkpt>
      <trkpt lat="49.17045" lon="1.32688">
        <ele>80.226747</ele>
        <time>2024-05-03T08:43:34.992Z</time>
      </trkpt>
      <trkpt lat="49.171" lon="1.32677">
        <ele>79.107119</ele>
        <time>2024-05-03T08:43:51.613Z</time>
      </trkpt>
      <trkpt lat="49.17143" lon="1.32665">
        <ele>79.056367</ele>
        <time>2024-05-03T08:44:05.816Z</time>
      </trkpt>
      <trkpt lat="49.17169" lon="1.32654">
        <ele>79.025671</ele>
        <time>2024-05-03T08:44:16.238Z</time>
      </trkpt>
      <trkpt lat="49.17197" lon="1.32649">
        <ele>78.992977</ele>
        <time>2024-05-03T08:44:26.111Z</time>
      </trkpt>
      <trkpt lat="49.17207" lon="1.32644">
        <ele>78.979801</ele>
        <time>2024-05-03T08:44:31.620Z</time>
      </trkpt>
      <trkpt lat="49.17213" lon="1.32637">
        <ele>78.971374</ele>
        <time>2024-05-03T08:44:35.219Z</time>
      </trkpt>
      <trkpt lat="49.1721" lon="1.32609">
        <ele>78.949773</ele>
        <time>2024-05-03T08:44:41.797Z</time>
      </trkpt>
      <trkpt lat="49.17218" lon="1.32605">
        <ele>78.940899</ele>
        <time>2024-05-03T08:44:44.272Z</time>
      </trkpt>
      <trkpt lat="49.17267" lon="1.32601">
        <ele>77.48604</ele>
        <time>2024-05-03T08:44:58.002Z</time>
      </trkpt>
      <trkpt lat="49.17279" lon="1.32687">
        <ele>73.543999</ele>
        <time>2024-05-03T08:45:11.738Z</time>
      </trkpt>
      <trkpt lat="49.17286" lon="1.32704">
        <ele>72.636154</ele>
        <time>2024-05-03T08:45:14.769Z</time>
      </trkpt>
      <trkpt lat="49.17327" lon="1.32747">
        <ele>69.169787</ele>
        <time>2024-05-03T08:45:25.746Z</time>
      </trkpt>
      <trkpt lat="49.17357" lon="1.32768">
        <ele>66.909711</ele>
        <time>2024-05-03T08:45:32.655Z</time>
      </trkpt>
      <trkpt lat="49.17366" lon="1.3276">
        <ele>65.906386</ele>
        <time>2024-05-03T08:45:35.042Z</time>
      </trkpt>
      <trkpt lat="49.17371" lon="1.32759">
        <ele>65.411666</ele>
        <time>2024-05-03T08:45:35.962Z</time>
      </trkpt>
      <trkpt lat="49.17366" lon="1.3276">
        <ele>64.916947</ele>
        <time>2024-05-03T08:45:36.868Z</time>
      </trkpt>
      <trkpt lat="49.17357" lon="1.32768">
        <ele>63.638174</ele>
        <time>2024-05-03T08:45:39.190Z</time>
      </trkpt>
      <trkpt lat="49.17404" lon="1.32786">
        <ele>58.164992</ele>
        <time>2024-05-03T08:45:49.438Z</time>
      </trkpt>
      <trkpt lat="49.17435" lon="1.32803">
        <ele>54.39253</ele>
        <time>2024-05-03T08:45:56.432Z</time>
      </trkpt>
      <trkpt lat="49.17463" lon="1.32827">
        <ele>50.740002</ele>
        <time>2024-05-03T08:46:03.243Z</time>
      </trkpt>
      <trkpt lat="49.17461" lon="1.32833">
        <ele>50.219163</ele>
        <time>2024-05-03T08:46:04.245Z</time>
      </trkpt>
      <trkpt lat="49.17394" lon="1.32872">
        <ele>42.640217</ele>
        <time>2024-05-03T08:46:19.231Z</time>
      </trkpt>
      <trkpt lat="49.17388" lon="1.32888">
        <ele>41.511034</ele>
        <time>2024-05-03T08:46:21.612Z</time>
      </trkpt>
      <trkpt lat="49.1738" lon="1.3291">
        <ele>39.841272</ele>
        <time>2024-05-03T08:46:25.203Z</time>
      </trkpt>
      <trkpt lat="49.17389" lon="1.32935">
        <ele>38.038524</ele>
        <time>2024-05-03T08:46:29.077Z</time>
      </trkpt>
      <trkpt lat="49.17389" lon="1.32935">
        <ele>38.038524</ele>
        <time>2024-05-03T08:46:29.077Z</time>
      </trkpt>
      <trkpt lat="49.17398" lon="1.32956">
        <ele>36.455016</ele>
        <time>2024-05-03T08:46:40.336Z</time>
      </trkpt>
      <trkpt lat="49.17409" lon="1.32969">
        <ele>35.039912</ele>
        <time>2024-05-03T08:46:50.328Z</time>
      </trkpt>
      <trkpt lat="49.17413" lon="1.32989">
        <ele>33.705888</ele>
        <time>2024-05-03T08:46:59.821Z</time>
      </trkpt>
      <trkpt lat="49.17413" lon="1.33004">
        <ele>32.758698</ele>
        <time>2024-05-03T08:47:06.530Z</time>
      </trkpt>
      <trkpt lat="49.17405" lon="1.33018">
        <ele>31.587745</ele>
        <time>2024-05-03T08:47:14.802Z</time>
      </trkpt>
      <trkpt lat="49.17395" lon="1.33028">
        <ele>30.414387</ele>
        <time>2024-05-03T08:47:23.121Z</time>
      </trkpt>
      <trkpt lat="49.17405" lon="1.33018">
        <ele>29.241029</ele>
        <time>2024-05-03T08:47:31.425Z</time>
      </trkpt>
      <trkpt lat="49.17413" lon="1.33004">
        <ele>28.285347</ele>
        <time>2024-05-03T08:47:39.691Z</time>
      </trkpt>
      <trkpt lat="49.17436" lon="1.33024">
        <ele>27.282564</ele>
        <time>2024-05-03T08:47:58.419Z</time>
      </trkpt>
      <trkpt lat="49.17453" lon="1.33033">
        <ele>26.626211</ele>
        <time>2024-05-03T08:48:10.646Z</time>
      </trkpt>
      <trkpt lat="49.17474" lon="1.33035">
        <ele>25.825081</ele>
        <time>2024-05-03T08:48:25.542Z</time>
      </trkpt>
      <trkpt lat="49.17493" lon="1.3303">
        <ele>25.087275</ele>
        <time>2024-05-03T08:48:39.309Z</time>
      </trkpt>
      <trkpt lat="49.1751" lon="1.33033">
        <ele>24.47565</ele>
        <time>2024-05-03T08:48:50.664Z</time>
      </trkpt>
      <trkpt lat="49.17521" lon="1.33045">
        <ele>23.945877</ele>
        <time>2024-05-03T08:49:00.572Z</time>
      </trkpt>
      <trkpt lat="49.1753" lon="1.33025">
        <ele>23.369654</ele>
        <time>2024-05-03T08:49:03.151Z</time>
      </trkpt>
      <trkpt lat="49.1753" lon="1.33025">
        <ele>23.369654</ele>
        <time>2024-05-03T08:49:03.171Z</time>
      </trkpt>
      <trkpt lat="49.1753" lon="1.33025">
        <ele>23.369654</ele>
        <time>2024-05-03T08:49:03.171Z</time>
      </trkpt>
      <trkpt lat="49.17586" lon="1.33081">
        <ele>21.754139</ele>
        <time>2024-05-03T08:49:31.770Z</time>
      </trkpt>
      <trkpt lat="49.17642" lon="1.33137">
        <ele>21.912939</ele>
        <time>2024-05-03T08:50:00.405Z</time>
      </trkpt>
      <trkpt lat="49.17658" lon="1.33081">
        <ele>22.007763</ele>
        <time>2024-05-03T08:50:09.320Z</time>
      </trkpt>
      <trkpt lat="49.17664" lon="1.3302">
        <ele>22.103895</ele>
        <time>2024-05-03T08:50:18.553Z</time>
      </trkpt>
      <trkpt lat="49.17661" lon="1.32979">
        <ele>22.231128</ele>
        <time>2024-05-03T08:50:25.164Z</time>
      </trkpt>
      <trkpt lat="49.1768" lon="1.32964">
        <ele>22.362451</ele>
        <time>2024-05-03T08:50:30.472Z</time>
      </trkpt>
      <trkpt lat="49.17715" lon="1.32955">
        <ele>22.583396</ele>
        <time>2024-05-03T08:50:40.926Z</time>
      </trkpt>
      <trkpt lat="49.17743" lon="1.32961">
        <ele>22.758866</ele>
        <time>2024-05-03T08:50:49.570Z</time>
      </trkpt>
      <trkpt lat="49.17797" lon="1.32992">
        <ele>23.115746</ele>
        <time>2024-05-03T08:51:02.964Z</time>
      </trkpt>
      <trkpt lat="49.17864" lon="1.32995">
        <ele>22.302206</ele>
        <time>2024-05-03T08:51:14.257Z</time>
      </trkpt>
      <trkpt lat="49.17876" lon="1.32992">
        <ele>22.036169</ele>
        <time>2024-05-03T08:51:16.424Z</time>
      </trkpt>
      <trkpt lat="49.17899" lon="1.33001">
        <ele>21.561543</ele>
        <time>2024-05-03T08:51:20.130Z</time>
      </trkpt>
      <trkpt lat="49.17922" lon="1.33024">
        <ele>20.995476</ele>
        <time>2024-05-03T08:51:24.302Z</time>
      </trkpt>
      <trkpt lat="49.17959" lon="1.33034">
        <ele>20.226512</ele>
        <time>2024-05-03T08:51:29.961Z</time>
      </trkpt>
      <trkpt lat="49.17978" lon="1.33046">
        <ele>19.8097</ele>
        <time>2024-05-03T08:51:33.076Z</time>
      </trkpt>
      <trkpt lat="49.17988" lon="1.33055">
        <ele>19.576246</ele>
        <time>2024-05-03T08:51:34.745Z</time>
      </trkpt>
      <trkpt lat="49.18001" lon="1.3308">
        <ele>19.116845</ele>
        <time>2024-05-03T08:51:38.045Z</time>
      </trkpt>
      <trkpt lat="49.1801" lon="1.33099">
        <ele>18.785938</ele>
        <time>2024-05-03T08:51:40.359Z</time>
      </trkpt>
      <trkpt lat="49.18013" lon="1.33105">
        <ele>18.677624</ele>
        <time>2024-05-03T08:51:41.101Z</time>
      </trkpt>
      <trkpt lat="49.18018" lon="1.33134">
        <ele>18.242626</ele>
        <time>2024-05-03T08:51:44.176Z</time>
      </trkpt>
      <trkpt lat="49.18024" lon="1.3318">
        <ele>17.57291</ele>
        <time>2024-05-03T08:51:48.988Z</time>
      </trkpt>
      <trkpt lat="49.18035" lon="1.33231">
        <ele>16.795405</ele>
        <time>2024-05-03T08:51:54.810Z</time>
      </trkpt>
      <trkpt lat="49.18039" lon="1.33241">
        <ele>16.624156</ele>
        <time>2024-05-03T08:51:56.140Z</time>
      </trkpt>
      <trkpt lat="49.18055" lon="1.33373">
        <ele>15.130751</ele>
        <time>2024-05-03T08:52:11.145Z</time>
      </trkpt>
      <trkpt lat="49.18057" lon="1.3345">
        <ele>14.550395</ele>
        <time>2024-05-03T08:52:20.096Z</time>
      </trkpt>
      <trkpt lat="49.18057" lon="1.3347">
        <ele>14.403631</ele>
        <time>2024-05-03T08:52:22.374Z</time>
      </trkpt>
      <trkpt lat="49.18072" lon="1.33471">
        <ele>14.231878</ele>
        <time>2024-05-03T08:52:24.880Z</time>
      </trkpt>
      <trkpt lat="49.18086" lon="1.33477">
        <ele>14.059868</ele>
        <time>2024-05-03T08:52:27.377Z</time>
      </trkpt>
      <trkpt lat="49.18101" lon="1.33483">
        <ele>13.882616</ele>
        <time>2024-05-03T08:52:29.961Z</time>
      </trkpt>
      <trkpt lat="49.18106" lon="1.33488">
        <ele>13.816819</ele>
        <time>2024-05-03T08:52:30.933Z</time>
      </trkpt>
      <trkpt lat="49.1811" lon="1.33501">
        <ele>13.705621</ele>
        <time>2024-05-03T08:52:32.534Z</time>
      </trkpt>
      <trkpt lat="49.18118" lon="1.33509">
        <ele>13.597858</ele>
        <time>2024-05-03T08:52:34.102Z</time>
      </trkpt>
      <trkpt lat="49.18127" lon="1.3351">
        <ele>13.51276</ele>
        <time>2024-05-03T08:52:35.671Z</time>
      </trkpt>
      <trkpt lat="49.18131" lon="1.33509">
        <ele>13.49061</ele>
        <time>2024-05-03T08:52:36.323Z</time>
      </trkpt>
      <trkpt lat="49.1814" lon="1.33507">
        <ele>13.43588</ele>
        <time>2024-05-03T08:52:38.000Z</time>
      </trkpt>
      <trkpt lat="49.1815" lon="1.33511">
        <ele>13.380737</ele>
        <time>2024-05-03T08:52:39.694Z</time>
      </trkpt>
      <trkpt lat="49.18163" lon="1.3352">
        <ele>13.295289</ele>
        <time>2024-05-03T08:52:42.332Z</time>
      </trkpt>
      <trkpt lat="49.18188" lon="1.33549">
        <ele>13.114194</ele>
        <time>2024-05-03T08:52:47.682Z</time>
      </trkpt>
      <trkpt lat="49.182" lon="1.33568">
        <ele>13.01524</ele>
        <time>2024-05-03T08:52:50.660Z</time>
      </trkpt>
      <trkpt lat="49.18236" lon="1.3369">
        <ele>12.507358</ele>
        <time>2024-05-03T08:53:06.712Z</time>
      </trkpt>
      <trkpt lat="49.18247" lon="1.33718">
        <ele>12.517637</ele>
        <time>2024-05-03T08:53:10.756Z</time>
      </trkpt>
      <trkpt lat="49.18287" lon="1.33795">
        <ele>12.59438</ele>
        <time>2024-05-03T08:53:23.485Z</time>
      </trkpt>
      <trkpt lat="49.18282" lon="1.338">
        <ele>12.601666</ele>
        <time>2024-05-03T08:53:25.474Z</time>
      </trkpt>
      <trkpt lat="49.18185" lon="1.33909">
        <ele>12.754099</ele>
        <time>2024-05-03T08:54:05.415Z</time>
      </trkpt>
      <trkpt lat="49.18101" lon="1.34007">
        <ele>12.908174</ele>
        <time>2024-05-03T08:54:39.250Z</time>
      </trkpt>
      <trkpt lat="49.18008" lon="1.34138">
        <ele>13.056607</ele>
        <time>2024-05-03T08:55:20.414Z</time>
      </trkpt>
      <trkpt lat="49.17895" lon="1.34311">
        <ele>13.069155</ele>
        <time>2024-05-03T08:56:11.417Z</time>
      </trkpt>
      <trkpt lat="49.17806" lon="1.34469">
        <ele>12.861151</ele>
        <time>2024-05-03T08:56:53.762Z</time>
      </trkpt>
      <trkpt lat="49.17804" lon="1.34469">
        <ele>12.856126</ele>
        <time>2024-05-03T08:56:54.394Z</time>
      </trkpt>
      <trkpt lat="49.17792" lon="1.34474">
        <ele>12.825231</ele>
        <time>2024-05-03T08:56:58.300Z</time>
      </trkpt>
      <trkpt lat="49.17753" lon="1.34408">
        <ele>12.683111</ele>
        <time>2024-05-03T08:57:16.363Z</time>
      </trkpt>
      <trkpt lat="49.17715" lon="1.34374">
        <ele>12.57666</ele>
        <time>2024-05-03T08:57:29.931Z</time>
      </trkpt>
      <trkpt lat="49.1769" lon="1.34357">
        <ele>12.510626</ele>
        <time>2024-05-03T08:57:38.436Z</time>
      </trkpt>
      <trkpt lat="49.17674" lon="1.34353">
        <ele>12.469778</ele>
        <time>2024-05-03T08:57:43.705Z</time>
      </trkpt>
      <trkpt lat="49.17656" lon="1.34354">
        <ele>12.456918</ele>
        <time>2024-05-03T08:57:49.183Z</time>
      </trkpt>
      <trkpt lat="49.1761" lon="1.34375">
        <ele>12.427072</ele>
        <time>2024-05-03T08:58:04.507Z</time>
      </trkpt>
      <trkpt lat="49.17572" lon="1.34386">
        <ele>12.40309</ele>
        <time>2024-05-03T08:58:16.796Z</time>
      </trkpt>
      <trkpt lat="49.17585" lon="1.34493">
        <ele>12.359222</ele>
        <time>2024-05-03T08:58:30.176Z</time>
      </trkpt>
      <trkpt lat="49.17586" lon="1.34499">
        <ele>12.357011</ele>
        <time>2024-05-03T08:58:30.880Z</time>
      </trkpt>
      <trkpt lat="49.17592" lon="1.34506">
        <ele>12.362046</ele>
        <time>2024-05-03T08:58:32.869Z</time>
      </trkpt>
      <trkpt lat="49.17593" lon="1.34512">
        <ele>12.366062</ele>
        <time>2024-05-03T08:58:33.826Z</time>
      </trkpt>
      <trkpt lat="49.17594" lon="1.34524">
        <ele>12.375055</ele>
        <time>2024-05-03T08:58:35.963Z</time>
      </trkpt>
      <trkpt lat="49.1759" lon="1.34536">
        <ele>12.384507</ele>
        <time>2024-05-03T08:58:38.189Z</time>
      </trkpt>
      <trkpt lat="49.17591" lon="1.34544">
        <ele>12.389849</ele>
        <time>2024-05-03T08:58:39.146Z</time>
      </trkpt>
      <trkpt lat="49.17591" lon="1.34564">
        <ele>12.404142</ele>
        <time>2024-05-03T08:58:41.830Z</time>
      </trkpt>
      <trkpt lat="49.17588" lon="1.34604">
        <ele>12.432501</ele>
        <time>2024-05-03T08:58:47.648Z</time>
      </trkpt>
      <trkpt lat="49.17581" lon="1.34621">
        <ele>12.445934</ele>
        <time>2024-05-03T08:58:50.384Z</time>
      </trkpt>
      <trkpt lat="49.17578" lon="1.34629">
        <ele>12.452445</ele>
        <time>2024-05-03T08:58:52.359Z</time>
      </trkpt>
      <trkpt lat="49.17571" lon="1.34656">
        <ele>12.472597</ele>
        <time>2024-05-03T08:58:56.482Z</time>
      </trkpt>
      <trkpt lat="49.17574" lon="1.34688">
        <ele>12.495409</ele>
        <time>2024-05-03T08:59:01.107Z</time>
      </trkpt>
      <trkpt lat="49.17559" lon="1.34798">
        <ele>12.674422</ele>
        <time>2024-05-03T08:59:17.199Z</time>
      </trkpt>
      <trkpt lat="49.17563" lon="1.34817">
        <ele>12.743697</ele>
        <time>2024-05-03T08:59:20.143Z</time>
      </trkpt>
      <trkpt lat="49.17562" lon="1.34827">
        <ele>12.778785</ele>
        <time>2024-05-03T08:59:21.656Z</time>
      </trkpt>
      <trkpt lat="49.17561" lon="1.34835">
        <ele>12.807336</ele>
        <time>2024-05-03T08:59:22.801Z</time>
      </trkpt>
      <trkpt lat="49.1761" lon="1.34883">
        <ele>13.114617</ele>
        <time>2024-05-03T08:59:35.714Z</time>
      </trkpt>
      <trkpt lat="49.17608" lon="1.34898">
        <ele>13.166727</ele>
        <time>2024-05-03T08:59:37.936Z</time>
      </trkpt>
      <trkpt lat="49.17555" lon="1.35028">
        <ele>13.698759</ele>
        <time>2024-05-03T09:00:01.019Z</time>
      </trkpt>
      <trkpt lat="49.17506" lon="1.35157">
        <ele>14.220907</ele>
        <time>2024-05-03T09:00:22.691Z</time>
      </trkpt>
      <trkpt lat="49.17506" lon="1.35152">
        <ele>14.238812</ele>
        <time>2024-05-03T09:00:24.992Z</time>
      </trkpt>
      <trkpt lat="49.17508" lon="1.35145">
        <ele>14.264256</ele>
        <time>2024-05-03T09:00:30.926Z</time>
      </trkpt>
      <trkpt lat="49.17502" lon="1.35134">
        <ele>14.316837</ele>
        <time>2024-05-03T09:00:43.002Z</time>
      </trkpt>
      <trkpt lat="49.17502" lon="1.35127">
        <ele>14.341425</ele>
        <time>2024-05-03T09:00:46.209Z</time>
      </trkpt>
      <trkpt lat="49.17503" lon="1.35127">
        <ele>14.346839</ele>
        <time>2024-05-03T09:00:46.410Z</time>
      </trkpt>
      <trkpt lat="49.17557" lon="1.35145">
        <ele>14.415442</ele>
        <time>2024-05-03T09:00:57.203Z</time>
      </trkpt>
      <trkpt lat="49.17556" lon="1.35151">
        <ele>14.409721</ele>
        <time>2024-05-03T09:00:59.970Z</time>
      </trkpt>
      <trkpt lat="49.1755" lon="1.35165">
        <ele>14.393587</ele>
        <time>2024-05-03T09:01:13.708Z</time>
      </trkpt>
      <trkpt lat="49.17545" lon="1.35166">
        <ele>14.386291</ele>
        <time>2024-05-03T09:01:17.259Z</time>
      </trkpt>
      <trkpt lat="49.1755" lon="1.35184">
        <ele>14.368515</ele>
        <time>2024-05-03T09:01:19.610Z</time>
      </trkpt>
      <trkpt lat="49.17549" lon="1.35195">
        <ele>14.357626</ele>
        <time>2024-05-03T09:01:21.087Z</time>
      </trkpt>
      <trkpt lat="49.17526" lon="1.3519">
        <ele>14.324431</ele>
        <time>2024-05-03T09:01:25.439Z</time>
      </trkpt>
      <trkpt lat="49.17519" lon="1.35195">
        <ele>14.313573</ele>
        <time>2024-05-03T09:01:26.778Z</time>
      </trkpt>
      <trkpt lat="49.17477" lon="1.35294">
        <ele>14.203751</ele>
        <time>2024-05-03T09:01:40.734Z</time>
      </trkpt>
      <trkpt lat="49.17463" lon="1.35333">
        <ele>14.203751</ele>
        <time>2024-05-03T09:01:46.172Z</time>
      </trkpt>
      <trkpt lat="49.17448" lon="1.35414">
        <ele>14.203751</ele>
        <time>2024-05-03T09:01:56.327Z</time>
      </trkpt>
      <trkpt lat="49.17463" lon="1.35421">
        <ele>14.203751</ele>
        <time>2024-05-03T09:01:59.104Z</time>
      </trkpt>
      <trkpt lat="49.17473" lon="1.3543">
        <ele>14.203751</ele>
        <time>2024-05-03T09:02:01.222Z</time>
      </trkpt>
      <trkpt lat="49.17477" lon="1.35438">
        <ele>14.203751</ele>
        <time>2024-05-03T09:02:02.446Z</time>
      </trkpt>
      <trkpt lat="49.17481" lon="1.35444">
        <ele>14.203751</ele>
        <time>2024-05-03T09:02:03.580Z</time>
      </trkpt>
      <trkpt lat="49.17505" lon="1.35472">
        <ele>14.203751</ele>
        <time>2024-05-03T09:02:09.169Z</time>
      </trkpt>
      <trkpt lat="49.17506" lon="1.35474">
        <ele>14.203751</ele>
        <time>2024-05-03T09:02:09.633Z</time>
      </trkpt>
    </trkseg>
  </trk>
</gpx>